﻿<?xml version="1.0" encoding="utf-8"?><gpx creator="Garmin Desktop App" version="1.1" xsi:schemaLocation="http://www.topografix.com/GPX/1/1 http://www.topografix.com/GPX/1/1/gpx.xsd http://www.garmin.com/xmlschemas/WaypointExtension/v1 http://www8.garmin.com/xmlschemas/WaypointExtensionv1.xsd http://www.garmin.com/xmlschemas/TrackPointExtension/v1 http://www.garmin.com/xmlschemas/TrackPointExtensionv1.xsd http://www.garmin.com/xmlschemas/GpxExtensions/v3 http://www8.garmin.com/xmlschemas/GpxExtensionsv3.xsd http://www.garmin.com/xmlschemas/ActivityExtension/v1 http://www8.garmin.com/xmlschemas/ActivityExtensionv1.xsd http://www.garmin.com/xmlschemas/AdventuresExtensions/v1 http://www8.garmin.com/xmlschemas/AdventuresExtensionv1.xsd http://www.garmin.com/xmlschemas/PressureExtension/v1 http://www.garmin.com/xmlschemas/PressureExtensionv1.xsd http://www.garmin.com/xmlschemas/TripExtensions/v1 http://www.garmin.com/xmlschemas/TripExtensionsv1.xsd http://www.garmin.com/xmlschemas/TripMetaDataExtensions/v1 http://www.garmin.com/xmlschemas/TripMetaDataExtensionsv1.xsd http://www.garmin.com/xmlschemas/ViaPointTransportationModeExtensions/v1 http://www.garmin.com/xmlschemas/ViaPointTransportationModeExtensionsv1.xsd http://www.garmin.com/xmlschemas/CreationTimeExtension/v1 http://www.garmin.com/xmlschemas/CreationTimeExtensionsv1.xsd http://www.garmin.com/xmlschemas/AccelerationExtension/v1 http://www.garmin.com/xmlschemas/AccelerationExtensionv1.xsd http://www.garmin.com/xmlschemas/PowerExtension/v1 http://www.garmin.com/xmlschemas/PowerExtensionv1.xsd http://www.garmin.com/xmlschemas/VideoExtension/v1 http://www.garmin.com/xmlschemas/VideoExtensionv1.xsd" xmlns="http://www.topografix.com/GPX/1/1" xmlns:xsi="http://www.w3.org/2001/XMLSchema-instance" xmlns:wptx1="http://www.garmin.com/xmlschemas/WaypointExtension/v1" xmlns:gpxtrx="http://www.garmin.com/xmlschemas/GpxExtensions/v3" xmlns:gpxtpx="http://www.garmin.com/xmlschemas/TrackPointExtension/v1" xmlns:gpxx="http://www.garmin.com/xmlschemas/GpxExtensions/v3" xmlns:trp="http://www.garmin.com/xmlschemas/TripExtensions/v1" xmlns:adv="http://www.garmin.com/xmlschemas/AdventuresExtensions/v1" xmlns:prs="http://www.garmin.com/xmlschemas/PressureExtension/v1" xmlns:tmd="http://www.garmin.com/xmlschemas/TripMetaDataExtensions/v1" xmlns:vptm="http://www.garmin.com/xmlschemas/ViaPointTransportationModeExtensions/v1" xmlns:ctx="http://www.garmin.com/xmlschemas/CreationTimeExtension/v1" xmlns:gpxacc="http://www.garmin.com/xmlschemas/AccelerationExtension/v1" xmlns:gpxpx="http://www.garmin.com/xmlschemas/PowerExtension/v1" xmlns:vidx1="http://www.garmin.com/xmlschemas/VideoExtension/v1">

  <metadata>
    <link href="http://www.garmin.com">
      <text>Garmin International</text>
    </link>
    <time>2021-08-08T19:31:57Z</time>
    <bounds maxlat="51.425267485901713" maxlon="4.382440270856023" minlat="51.351785939186811" minlon="4.317733990028501" />
  </metadata>

  <trk>
    <name>leeuw van vlaanderen de wolf rond ossendrecht 15 km</name>
    <extensions>
      <gpxx:TrackExtension>
        <gpxx:DisplayColor>Red</gpxx:DisplayColor>
      </gpxx:TrackExtension>
    </extensions>
    <trkseg>
      <trkpt lat="51.424221927300096" lon="4.382339436560869">
        <ele>12.390000000000001</ele>
        <time>2021-08-08T12:20:07Z</time>
      </trkpt>
      <trkpt lat="51.424400378018618" lon="4.382440270856023">
        <ele>12.4</ele>
        <time>2021-08-08T12:20:08Z</time>
      </trkpt>
      <trkpt lat="51.424362659454346" lon="4.382154364138842">
        <ele>12.43</ele>
        <time>2021-08-08T12:20:29Z</time>
      </trkpt>
      <trkpt lat="51.424170797690749" lon="4.381673410534859">
        <ele>12.42</ele>
        <time>2021-08-08T12:20:49Z</time>
      </trkpt>
      <trkpt lat="51.423578448593616" lon="4.380934545770288">
        <ele>13.029999999999999</ele>
        <time>2021-08-08T12:21:31Z</time>
      </trkpt>
      <trkpt lat="51.423168322071433" lon="4.380495836958289">
        <ele>13.720000000000001</ele>
        <time>2021-08-08T12:21:48Z</time>
      </trkpt>
      <trkpt lat="51.423138650134206" lon="4.380403971299529">
        <ele>13.69</ele>
        <time>2021-08-08T12:21:52Z</time>
      </trkpt>
      <trkpt lat="51.423050891608" lon="4.380385112017393">
        <ele>13.67</ele>
        <time>2021-08-08T12:21:59Z</time>
      </trkpt>
      <trkpt lat="51.423020549118519" lon="4.3803502433002">
        <ele>13.640000000000001</ele>
        <time>2021-08-08T12:22:02Z</time>
      </trkpt>
      <trkpt lat="51.422858191654086" lon="4.380264831706882">
        <ele>13.56</ele>
        <time>2021-08-08T12:22:16Z</time>
      </trkpt>
      <trkpt lat="51.422831453382969" lon="4.38024764880538">
        <ele>13.539999999999999</ele>
        <time>2021-08-08T12:22:18Z</time>
      </trkpt>
      <trkpt lat="51.422523502260447" lon="4.380024103447795">
        <ele>13.34</ele>
        <time>2021-08-08T12:22:38Z</time>
      </trkpt>
      <trkpt lat="51.422312278300524" lon="4.379926957190037">
        <ele>13.25</ele>
        <time>2021-08-08T12:22:53Z</time>
      </trkpt>
      <trkpt lat="51.422288808971643" lon="4.379890998825431">
        <ele>13.220000000000001</ele>
        <time>2021-08-08T12:22:55Z</time>
      </trkpt>
      <trkpt lat="51.422229213640094" lon="4.379731323570013">
        <ele>13.119999999999999</ele>
        <time>2021-08-08T12:23:05Z</time>
      </trkpt>
      <trkpt lat="51.422236673533916" lon="4.379485566169024">
        <ele>12.94</ele>
        <time>2021-08-08T12:23:17Z</time>
      </trkpt>
      <trkpt lat="51.422286378219724" lon="4.379417253658176">
        <ele>12.869999999999999</ele>
        <time>2021-08-08T12:23:27Z</time>
      </trkpt>
      <trkpt lat="51.422508414834738" lon="4.379448434337974">
        <ele>12.59</ele>
        <time>2021-08-08T12:23:49Z</time>
      </trkpt>
      <trkpt lat="51.422660211101174" lon="4.379232600331307">
        <ele>14.140000000000001</ele>
        <time>2021-08-08T12:24:03Z</time>
      </trkpt>
      <trkpt lat="51.42282416112721" lon="4.379065129905939">
        <ele>13.890000000000001</ele>
        <time>2021-08-08T12:24:16Z</time>
      </trkpt>
      <trkpt lat="51.422884594649076" lon="4.378864215686917">
        <ele>13.77</ele>
        <time>2021-08-08T12:24:23Z</time>
      </trkpt>
      <trkpt lat="51.422909572720528" lon="4.378823144361377">
        <ele>13.73</ele>
        <time>2021-08-08T12:24:25Z</time>
      </trkpt>
      <trkpt lat="51.422921810299158" lon="4.378724489361048">
        <ele>13.699999999999999</ele>
        <time>2021-08-08T12:24:29Z</time>
      </trkpt>
      <trkpt lat="51.422956176102161" lon="4.378646789118648">
        <ele>13.67</ele>
        <time>2021-08-08T12:24:33Z</time>
      </trkpt>
      <trkpt lat="51.423072936013341" lon="4.378400025889278">
        <ele>13.539999999999999</ele>
        <time>2021-08-08T12:24:45Z</time>
      </trkpt>
      <trkpt lat="51.423104032874107" lon="4.378266669809818">
        <ele>13.470000000000001</ele>
        <time>2021-08-08T12:24:51Z</time>
      </trkpt>
      <trkpt lat="51.423256834968925" lon="4.377958970144391">
        <ele>13.35</ele>
        <time>2021-08-08T12:25:04Z</time>
      </trkpt>
      <trkpt lat="51.423385078087449" lon="4.377721175551415">
        <ele>13.279999999999999</ele>
        <time>2021-08-08T12:25:12Z</time>
      </trkpt>
      <trkpt lat="51.423832504078746" lon="4.377327561378479">
        <ele>13.76</ele>
        <time>2021-08-08T12:25:35Z</time>
      </trkpt>
      <trkpt lat="51.423917915672064" lon="4.377327226102352">
        <ele>13.710000000000001</ele>
        <time>2021-08-08T12:25:38Z</time>
      </trkpt>
      <trkpt lat="51.42398807220161" lon="4.377364525571466">
        <ele>11.369999999999999</ele>
        <time>2021-08-08T12:25:41Z</time>
      </trkpt>
      <trkpt lat="51.424239361658692" lon="4.377255560830236">
        <ele>11.25</ele>
        <time>2021-08-08T12:25:50Z</time>
      </trkpt>
      <trkpt lat="51.424491321668029" lon="4.376973509788513">
        <ele>11.109999999999999</ele>
        <time>2021-08-08T12:26:01Z</time>
      </trkpt>
      <trkpt lat="51.424554688856006" lon="4.376905784010887">
        <ele>11.050000000000001</ele>
        <time>2021-08-08T12:26:04Z</time>
      </trkpt>
      <trkpt lat="51.424568351358175" lon="4.376882314682007">
        <ele>11.050000000000001</ele>
        <time>2021-08-08T12:26:05Z</time>
      </trkpt>
      <trkpt lat="51.424580086022615" lon="4.376860773190856">
        <ele>11.029999999999999</ele>
        <time>2021-08-08T12:26:06Z</time>
      </trkpt>
      <trkpt lat="51.424591317772865" lon="4.376818612217903">
        <ele>11</ele>
        <time>2021-08-08T12:26:07Z</time>
      </trkpt>
      <trkpt lat="51.424603471532464" lon="4.376776535063982">
        <ele>10.98</ele>
        <time>2021-08-08T12:26:08Z</time>
      </trkpt>
      <trkpt lat="51.424805726855993" lon="4.37640898860991">
        <ele>10.779999999999999</ele>
        <time>2021-08-08T12:26:19Z</time>
      </trkpt>
      <trkpt lat="51.425058273598552" lon="4.375907499343157">
        <ele>10.5</ele>
        <time>2021-08-08T12:26:34Z</time>
      </trkpt>
      <trkpt lat="51.425168747082353" lon="4.375767521560192">
        <ele>10.43</ele>
        <time>2021-08-08T12:26:39Z</time>
      </trkpt>
      <trkpt lat="51.425190204754472" lon="4.375743800774217">
        <ele>10.41</ele>
        <time>2021-08-08T12:26:40Z</time>
      </trkpt>
      <trkpt lat="51.425215601921082" lon="4.375714212656021">
        <ele>10.4</ele>
        <time>2021-08-08T12:26:41Z</time>
      </trkpt>
      <trkpt lat="51.425235383212566" lon="4.375675320625305">
        <ele>10.4</ele>
        <time>2021-08-08T12:26:42Z</time>
      </trkpt>
      <trkpt lat="51.425248710438609" lon="4.375634249299765">
        <ele>10.380000000000001</ele>
        <time>2021-08-08T12:26:43Z</time>
      </trkpt>
      <trkpt lat="51.425255918875337" lon="4.375591166317463">
        <ele>10.369999999999999</ele>
        <time>2021-08-08T12:26:44Z</time>
      </trkpt>
      <trkpt lat="51.425261031836271" lon="4.375554285943508">
        <ele>10.35</ele>
        <time>2021-08-08T12:26:45Z</time>
      </trkpt>
      <trkpt lat="51.425258349627256" lon="4.375516148284078">
        <ele>10.33</ele>
        <time>2021-08-08T12:26:46Z</time>
      </trkpt>
      <trkpt lat="51.425251644104719" lon="4.375480860471726">
        <ele>10.32</ele>
        <time>2021-08-08T12:26:47Z</time>
      </trkpt>
      <trkpt lat="51.425080234184861" lon="4.374902844429016">
        <ele>9.24</ele>
        <time>2021-08-08T12:26:59Z</time>
      </trkpt>
      <trkpt lat="51.425070930272341" lon="4.374866466969252">
        <ele>9.23</ele>
        <time>2021-08-08T12:27:00Z</time>
      </trkpt>
      <trkpt lat="51.425070930272341" lon="4.374827742576599">
        <ele>9.220000000000001</ele>
        <time>2021-08-08T12:27:01Z</time>
      </trkpt>
      <trkpt lat="51.42500982619822" lon="4.374292138963938">
        <ele>9.050000000000001</ele>
        <time>2021-08-08T12:27:14Z</time>
      </trkpt>
      <trkpt lat="51.424896502867341" lon="4.374084351584315">
        <ele>8.93</ele>
        <time>2021-08-08T12:27:22Z</time>
      </trkpt>
      <trkpt lat="51.42484906129539" lon="4.374019056558609">
        <ele>8.84</ele>
        <time>2021-08-08T12:27:33Z</time>
      </trkpt>
      <trkpt lat="51.424938244745135" lon="4.373879665508866">
        <ele>8.720000000000001</ele>
        <time>2021-08-08T12:27:44Z</time>
      </trkpt>
      <trkpt lat="51.424950817599893" lon="4.373862314969301">
        <ele>8.720000000000001</ele>
        <time>2021-08-08T12:27:45Z</time>
      </trkpt>
      <trkpt lat="51.424963725730777" lon="4.373849909752607">
        <ele>8.710000000000001</ele>
        <time>2021-08-08T12:27:46Z</time>
      </trkpt>
      <trkpt lat="51.425103200599551" lon="4.373718146234751">
        <ele>8.630000000000001</ele>
        <time>2021-08-08T12:27:57Z</time>
      </trkpt>
      <trkpt lat="51.425232114270329" lon="4.373541455715895">
        <ele>8.58</ele>
        <time>2021-08-08T12:28:08Z</time>
      </trkpt>
      <trkpt lat="51.425259942188859" lon="4.373464593663812">
        <ele>8.550000000000001</ele>
        <time>2021-08-08T12:28:12Z</time>
      </trkpt>
      <trkpt lat="51.425267485901713" lon="4.373405082151294">
        <ele>8.529999999999999</ele>
        <time>2021-08-08T12:28:15Z</time>
      </trkpt>
      <trkpt lat="51.425262708216906" lon="4.373379098251462">
        <ele>8.529999999999999</ele>
        <time>2021-08-08T12:28:16Z</time>
      </trkpt>
      <trkpt lat="51.425239909440279" lon="4.373315814882517">
        <ele>10.460000000000001</ele>
        <time>2021-08-08T12:28:21Z</time>
      </trkpt>
      <trkpt lat="51.425230605527759" lon="4.373257476836443">
        <ele>10.449999999999999</ele>
        <time>2021-08-08T12:28:24Z</time>
      </trkpt>
      <trkpt lat="51.425204537808895" lon="4.37323534861207">
        <ele>10.44</ele>
        <time>2021-08-08T12:28:28Z</time>
      </trkpt>
      <trkpt lat="51.425195820629597" lon="4.373234678059816">
        <ele>8.1</ele>
        <time>2021-08-08T12:28:29Z</time>
      </trkpt>
      <trkpt lat="51.425186516717076" lon="4.373206682503223">
        <ele>8.1</ele>
        <time>2021-08-08T12:28:30Z</time>
      </trkpt>
      <trkpt lat="51.425014771521091" lon="4.372933264821768">
        <ele>8.029999999999999</ele>
        <time>2021-08-08T12:28:46Z</time>
      </trkpt>
      <trkpt lat="51.424803044646978" lon="4.372853050008416">
        <ele>7.91</ele>
        <time>2021-08-08T12:29:03Z</time>
      </trkpt>
      <trkpt lat="51.424741102382541" lon="4.372789096087217">
        <ele>7.9</ele>
        <time>2021-08-08T12:29:08Z</time>
      </trkpt>
      <trkpt lat="51.424604896456003" lon="4.372600754722953">
        <ele>7.82</ele>
        <time>2021-08-08T12:29:21Z</time>
      </trkpt>
      <trkpt lat="51.424387386068702" lon="4.372369917109609">
        <ele>7.74</ele>
        <time>2021-08-08T12:29:34Z</time>
      </trkpt>
      <trkpt lat="51.424048002809286" lon="4.372121309861541">
        <ele>7.7</ele>
        <time>2021-08-08T12:29:45Z</time>
      </trkpt>
      <trkpt lat="51.42381708137691" lon="4.37189843505621">
        <ele>7.64</ele>
        <time>2021-08-08T12:29:55Z</time>
      </trkpt>
      <trkpt lat="51.423575012013316" lon="4.371604062616825">
        <ele>7.57</ele>
        <time>2021-08-08T12:30:05Z</time>
      </trkpt>
      <trkpt lat="51.423378707841039" lon="4.371423600241542">
        <ele>6.64</ele>
        <time>2021-08-08T12:30:13Z</time>
      </trkpt>
      <trkpt lat="51.423351215198636" lon="4.371391329914331">
        <ele>6.64</ele>
        <time>2021-08-08T12:30:14Z</time>
      </trkpt>
      <trkpt lat="51.422922229394317" lon="4.37092655338347">
        <ele>6.63</ele>
        <time>2021-08-08T12:30:31Z</time>
      </trkpt>
      <trkpt lat="51.422909572720528" lon="4.370910292491317">
        <ele>8.99</ele>
        <time>2021-08-08T12:30:32Z</time>
      </trkpt>
      <trkpt lat="51.422881577163935" lon="4.370875591412187">
        <ele>8.98</ele>
        <time>2021-08-08T12:30:33Z</time>
      </trkpt>
      <trkpt lat="51.422858024016023" lon="4.370855139568448">
        <ele>8.970000000000001</ele>
        <time>2021-08-08T12:30:34Z</time>
      </trkpt>
      <trkpt lat="51.422825334593654" lon="4.370829490944743">
        <ele>8.970000000000001</ele>
        <time>2021-08-08T12:30:35Z</time>
      </trkpt>
      <trkpt lat="51.422748556360602" lon="4.370735948905349">
        <ele>8.94</ele>
        <time>2021-08-08T12:30:38Z</time>
      </trkpt>
      <trkpt lat="51.422478407621384" lon="4.370325151830912">
        <ele>8.85</ele>
        <time>2021-08-08T12:30:49Z</time>
      </trkpt>
      <trkpt lat="51.422211527824402" lon="4.369947044178844">
        <ele>8.76</ele>
        <time>2021-08-08T12:30:59Z</time>
      </trkpt>
      <trkpt lat="51.422189902514219" lon="4.369924496859312">
        <ele>8.75</ele>
        <time>2021-08-08T12:31:00Z</time>
      </trkpt>
      <trkpt lat="51.422168277204037" lon="4.369880994781852">
        <ele>8.75</ele>
        <time>2021-08-08T12:31:01Z</time>
      </trkpt>
      <trkpt lat="51.422142796218395" lon="4.36984620988369">
        <ele>8.74</ele>
        <time>2021-08-08T12:31:02Z</time>
      </trkpt>
      <trkpt lat="51.422119829803705" lon="4.369811592623591">
        <ele>8.73</ele>
        <time>2021-08-08T12:31:03Z</time>
      </trkpt>
      <trkpt lat="51.422100299969316" lon="4.369775298982859">
        <ele>8.73</ele>
        <time>2021-08-08T12:31:04Z</time>
      </trkpt>
      <trkpt lat="51.422076914459467" lon="4.369752667844296">
        <ele>8.720000000000001</ele>
        <time>2021-08-08T12:31:05Z</time>
      </trkpt>
      <trkpt lat="51.422041794285178" lon="4.369712183251977">
        <ele>8.710000000000001</ele>
        <time>2021-08-08T12:31:06Z</time>
      </trkpt>
      <trkpt lat="51.422012876719236" lon="4.369687959551811">
        <ele>8.699999999999999</ele>
        <time>2021-08-08T12:31:07Z</time>
      </trkpt>
      <trkpt lat="51.421985803171992" lon="4.369667675346136">
        <ele>8.699999999999999</ele>
        <time>2021-08-08T12:31:08Z</time>
      </trkpt>
      <trkpt lat="51.421965099871159" lon="4.36964345164597">
        <ele>8.69</ele>
        <time>2021-08-08T12:31:09Z</time>
      </trkpt>
      <trkpt lat="51.421943726018071" lon="4.369601374492049">
        <ele>8.69</ele>
        <time>2021-08-08T12:31:10Z</time>
      </trkpt>
      <trkpt lat="51.421634266152978" lon="4.369231900200248">
        <ele>8.59</ele>
        <time>2021-08-08T12:31:22Z</time>
      </trkpt>
      <trkpt lat="51.421595374122262" lon="4.369181524962187">
        <ele>8.57</ele>
        <time>2021-08-08T12:31:24Z</time>
      </trkpt>
      <trkpt lat="51.421348610892892" lon="4.368792856112123">
        <ele>8.48</ele>
        <time>2021-08-08T12:31:34Z</time>
      </trkpt>
      <trkpt lat="51.421191953122616" lon="4.368627397343516">
        <ele>8.42</ele>
        <time>2021-08-08T12:31:44Z</time>
      </trkpt>
      <trkpt lat="51.421080389991403" lon="4.368613231927156">
        <ele>8.359999999999999</ele>
        <time>2021-08-08T12:31:52Z</time>
      </trkpt>
      <trkpt lat="51.420927168801427" lon="4.368474259972572">
        <ele>8.26</ele>
        <time>2021-08-08T12:32:03Z</time>
      </trkpt>
      <trkpt lat="51.42089263536036" lon="4.368459340184927">
        <ele>5.19</ele>
        <time>2021-08-08T12:32:06Z</time>
      </trkpt>
      <trkpt lat="51.420881152153015" lon="4.368452215567231">
        <ele>8.470000000000001</ele>
        <time>2021-08-08T12:32:07Z</time>
      </trkpt>
      <trkpt lat="51.420706892386079" lon="4.368413491174579">
        <ele>8.369999999999999</ele>
        <time>2021-08-08T12:32:18Z</time>
      </trkpt>
      <trkpt lat="51.420561131089926" lon="4.368580039590597">
        <ele>8.199999999999999</ele>
        <time>2021-08-08T12:32:34Z</time>
      </trkpt>
      <trkpt lat="51.420343704521656" lon="4.368758238852024">
        <ele>8</ele>
        <time>2021-08-08T12:32:53Z</time>
      </trkpt>
      <trkpt lat="51.420057965442538" lon="4.368836358189583">
        <ele>7.78</ele>
        <time>2021-08-08T12:33:13Z</time>
      </trkpt>
      <trkpt lat="51.419965513050556" lon="4.368737787008286">
        <ele>5.41</ele>
        <time>2021-08-08T12:33:21Z</time>
      </trkpt>
      <trkpt lat="51.41975755803287" lon="4.36871599406004">
        <ele>5.37</ele>
        <time>2021-08-08T12:33:36Z</time>
      </trkpt>
      <trkpt lat="51.41970626078546" lon="4.368674755096436">
        <ele>5.35</ele>
        <time>2021-08-08T12:33:40Z</time>
      </trkpt>
      <trkpt lat="51.41968228854239" lon="4.368645586073399">
        <ele>5.34</ele>
        <time>2021-08-08T12:33:42Z</time>
      </trkpt>
      <trkpt lat="51.419573742896318" lon="4.368587080389261">
        <ele>7.78</ele>
        <time>2021-08-08T12:33:52Z</time>
      </trkpt>
      <trkpt lat="51.419402500614524" lon="4.368545170873404">
        <ele>7.72</ele>
        <time>2021-08-08T12:34:08Z</time>
      </trkpt>
      <trkpt lat="51.419350197538733" lon="4.368519270792604">
        <ele>7.69</ele>
        <time>2021-08-08T12:34:13Z</time>
      </trkpt>
      <trkpt lat="51.419190522283316" lon="4.368466380983591">
        <ele>7.64</ele>
        <time>2021-08-08T12:34:26Z</time>
      </trkpt>
      <trkpt lat="51.418997151777148" lon="4.368411647155881">
        <ele>7.53</ele>
        <time>2021-08-08T12:34:42Z</time>
      </trkpt>
      <trkpt lat="51.418933784589171" lon="4.368354985490441">
        <ele>7.49</ele>
        <time>2021-08-08T12:34:47Z</time>
      </trkpt>
      <trkpt lat="51.418345374986529" lon="4.368190197274089">
        <ele>4.83</ele>
        <time>2021-08-08T12:35:38Z</time>
      </trkpt>
      <trkpt lat="51.418115962296724" lon="4.368134792894125">
        <ele>4.71</ele>
        <time>2021-08-08T12:35:52Z</time>
      </trkpt>
      <trkpt lat="51.418085368350148" lon="4.368119621649385">
        <ele>4.7</ele>
        <time>2021-08-08T12:35:54Z</time>
      </trkpt>
      <trkpt lat="51.417970452457666" lon="4.368064301088452">
        <ele>6.99</ele>
        <time>2021-08-08T12:36:08Z</time>
      </trkpt>
      <trkpt lat="51.417821003124118" lon="4.368117693811655">
        <ele>7.62</ele>
        <time>2021-08-08T12:36:23Z</time>
      </trkpt>
      <trkpt lat="51.417682282626629" lon="4.368138816207647">
        <ele>7.44</ele>
        <time>2021-08-08T12:36:41Z</time>
      </trkpt>
      <trkpt lat="51.417620843276381" lon="4.368145270273089">
        <ele>5.03</ele>
        <time>2021-08-08T12:36:47Z</time>
      </trkpt>
      <trkpt lat="51.417361842468381" lon="4.368158848956227">
        <ele>4.87</ele>
        <time>2021-08-08T12:37:07Z</time>
      </trkpt>
      <trkpt lat="51.417252877727151" lon="4.368124902248383">
        <ele>4.81</ele>
        <time>2021-08-08T12:37:14Z</time>
      </trkpt>
      <trkpt lat="51.417074427008629" lon="4.368180138990283">
        <ele>4.67</ele>
        <time>2021-08-08T12:37:28Z</time>
      </trkpt>
      <trkpt lat="51.416952889412642" lon="4.368208553642035">
        <ele>4.57</ele>
        <time>2021-08-08T12:37:38Z</time>
      </trkpt>
      <trkpt lat="51.416908549144864" lon="4.368197824805975">
        <ele>4.5</ele>
        <time>2021-08-08T12:37:45Z</time>
      </trkpt>
      <trkpt lat="51.416675616055727" lon="4.368406198918819">
        <ele>4.32</ele>
        <time>2021-08-08T12:38:05Z</time>
      </trkpt>
      <trkpt lat="51.41598042100668" lon="4.368665786460042">
        <ele>3.14</ele>
        <time>2021-08-08T12:39:04Z</time>
      </trkpt>
      <trkpt lat="51.4158929977566" lon="4.36869696713984">
        <ele>3.1</ele>
        <time>2021-08-08T12:39:10Z</time>
      </trkpt>
      <trkpt lat="51.415670290589333" lon="4.368749270215631">
        <ele>2.95</ele>
        <time>2021-08-08T12:39:29Z</time>
      </trkpt>
      <trkpt lat="51.415472980588675" lon="4.368788916617632">
        <ele>2.81</ele>
        <time>2021-08-08T12:39:45Z</time>
      </trkpt>
      <trkpt lat="51.415240718051791" lon="4.36883183196187">
        <ele>2.66</ele>
        <time>2021-08-08T12:40:01Z</time>
      </trkpt>
      <trkpt lat="51.415188163518906" lon="4.368844907730818">
        <ele>2.62</ele>
        <time>2021-08-08T12:40:05Z</time>
      </trkpt>
      <trkpt lat="51.415008790791035" lon="4.368984634056687">
        <ele>2.47</ele>
        <time>2021-08-08T12:40:22Z</time>
      </trkpt>
      <trkpt lat="51.414846684783697" lon="4.369059400632978">
        <ele>2.38</ele>
        <time>2021-08-08T12:40:35Z</time>
      </trkpt>
      <trkpt lat="51.414683740586042" lon="4.36901799403131">
        <ele>2.29</ele>
        <time>2021-08-08T12:40:50Z</time>
      </trkpt>
      <trkpt lat="51.414485508576035" lon="4.368951441720128">
        <ele>2.23</ele>
        <time>2021-08-08T12:41:06Z</time>
      </trkpt>
      <trkpt lat="51.414212174713612" lon="4.36869109980762">
        <ele>4.37</ele>
        <time>2021-08-08T12:41:27Z</time>
      </trkpt>
      <trkpt lat="51.414164565503597" lon="4.368670899420977">
        <ele>4.34</ele>
        <time>2021-08-08T12:41:30Z</time>
      </trkpt>
      <trkpt lat="51.414128774777055" lon="4.368628319352865">
        <ele>4.3</ele>
        <time>2021-08-08T12:41:33Z</time>
      </trkpt>
      <trkpt lat="51.413937667384744" lon="4.368604766204953">
        <ele>4.07</ele>
        <time>2021-08-08T12:41:51Z</time>
      </trkpt>
      <trkpt lat="51.413653939962387" lon="4.368705013766885">
        <ele>3.9</ele>
        <time>2021-08-08T12:42:02Z</time>
      </trkpt>
      <trkpt lat="51.413418324664235" lon="4.368786821141839">
        <ele>3.75</ele>
        <time>2021-08-08T12:42:09Z</time>
      </trkpt>
      <trkpt lat="51.413371553644538" lon="4.368812637403607">
        <ele>3.73</ele>
        <time>2021-08-08T12:42:10Z</time>
      </trkpt>
      <trkpt lat="51.412808541208506" lon="4.368947837501764">
        <ele>1.37</ele>
        <time>2021-08-08T12:42:18Z</time>
      </trkpt>
      <trkpt lat="51.412032712250948" lon="4.369186973199248">
        <ele>3.71</ele>
        <time>2021-08-08T12:42:30Z</time>
      </trkpt>
      <trkpt lat="51.411295020952821" lon="4.369350420311093">
        <ele>3.68</ele>
        <time>2021-08-08T12:42:42Z</time>
      </trkpt>
      <trkpt lat="51.411235425621271" lon="4.369345726445317">
        <ele>3.69</ele>
        <time>2021-08-08T12:42:43Z</time>
      </trkpt>
      <trkpt lat="51.411177087575197" lon="4.369342792779207">
        <ele>3.71</ele>
        <time>2021-08-08T12:42:44Z</time>
      </trkpt>
      <trkpt lat="51.411117240786552" lon="4.369347989559174">
        <ele>3.69</ele>
        <time>2021-08-08T12:42:45Z</time>
      </trkpt>
      <trkpt lat="51.410997128114104" lon="4.369368776679039">
        <ele>3.76</ele>
        <time>2021-08-08T12:42:47Z</time>
      </trkpt>
      <trkpt lat="51.409915024414659" lon="4.369639763608575">
        <ele>4.89</ele>
        <time>2021-08-08T12:43:05Z</time>
      </trkpt>
      <trkpt lat="51.409139698371291" lon="4.370066486299038">
        <ele>4.87</ele>
        <time>2021-08-08T12:43:19Z</time>
      </trkpt>
      <trkpt lat="51.409040708094835" lon="4.370115185156465">
        <ele>2.48</ele>
        <time>2021-08-08T12:43:21Z</time>
      </trkpt>
      <trkpt lat="51.408562771975994" lon="4.370364965870976">
        <ele>2.59</ele>
        <time>2021-08-08T12:43:33Z</time>
      </trkpt>
      <trkpt lat="51.40837736427784" lon="4.370475523173809">
        <ele>2.71</ele>
        <time>2021-08-08T12:43:44Z</time>
      </trkpt>
      <trkpt lat="51.408225987106562" lon="4.370512822642922">
        <ele>2.73</ele>
        <time>2021-08-08T12:43:54Z</time>
      </trkpt>
      <trkpt lat="51.40821416862309" lon="4.370506871491671">
        <ele>2.74</ele>
        <time>2021-08-08T12:43:55Z</time>
      </trkpt>
      <trkpt lat="51.408197237178683" lon="4.370503686368465">
        <ele>2.76</ele>
        <time>2021-08-08T12:43:56Z</time>
      </trkpt>
      <trkpt lat="51.408183071762323" lon="4.370506452396512">
        <ele>2.77</ele>
        <time>2021-08-08T12:43:57Z</time>
      </trkpt>
      <trkpt lat="51.408169744536281" lon="4.370510643348098">
        <ele>2.78</ele>
        <time>2021-08-08T12:43:58Z</time>
      </trkpt>
      <trkpt lat="51.408153399825096" lon="4.370531598106027">
        <ele>2.77</ele>
        <time>2021-08-08T12:43:59Z</time>
      </trkpt>
      <trkpt lat="51.408142251893878" lon="4.370541069656611">
        <ele>2.78</ele>
        <time>2021-08-08T12:44:00Z</time>
      </trkpt>
      <trkpt lat="51.408129343762994" lon="4.37055079266429">
        <ele>2.8</ele>
        <time>2021-08-08T12:44:01Z</time>
      </trkpt>
      <trkpt lat="51.407957933843136" lon="4.370653973892331">
        <ele>2.05</ele>
        <time>2021-08-08T12:44:16Z</time>
      </trkpt>
      <trkpt lat="51.407724414020777" lon="4.370696051046252">
        <ele>2.07</ele>
        <time>2021-08-08T12:44:31Z</time>
      </trkpt>
      <trkpt lat="51.407710332423449" lon="4.370674844831228">
        <ele>2.07</ele>
        <time>2021-08-08T12:44:32Z</time>
      </trkpt>
      <trkpt lat="51.407703123986721" lon="4.370655482634902">
        <ele>2.08</ele>
        <time>2021-08-08T12:44:33Z</time>
      </trkpt>
      <trkpt lat="51.407542191445827" lon="4.370237309485674">
        <ele>2.07</ele>
        <time>2021-08-08T12:44:44Z</time>
      </trkpt>
      <trkpt lat="51.407425096258521" lon="4.369831960648298">
        <ele>2.07</ele>
        <time>2021-08-08T12:44:54Z</time>
      </trkpt>
      <trkpt lat="51.407231725752354" lon="4.369320161640644">
        <ele>1.99</ele>
        <time>2021-08-08T12:45:05Z</time>
      </trkpt>
      <trkpt lat="51.407047659158707" lon="4.36887382529676">
        <ele>1.17</ele>
        <time>2021-08-08T12:45:16Z</time>
      </trkpt>
      <trkpt lat="51.406923606991768" lon="4.368343418464065">
        <ele>1.18</ele>
        <time>2021-08-08T12:45:26Z</time>
      </trkpt>
      <trkpt lat="51.40677323564887" lon="4.367770347744227">
        <ele>1.23</ele>
        <time>2021-08-08T12:45:35Z</time>
      </trkpt>
      <trkpt lat="51.406560586765409" lon="4.367130724713206">
        <ele>0.44</ele>
        <time>2021-08-08T12:45:49Z</time>
      </trkpt>
      <trkpt lat="51.406429074704647" lon="4.366754880174995">
        <ele>0.4</ele>
        <time>2021-08-08T12:46:07Z</time>
      </trkpt>
      <trkpt lat="51.40630510635674" lon="4.366408959031105">
        <ele>0.43</ele>
        <time>2021-08-08T12:46:19Z</time>
      </trkpt>
      <trkpt lat="51.406246265396476" lon="4.366249032318592">
        <ele>2.83</ele>
        <time>2021-08-08T12:46:27Z</time>
      </trkpt>
      <trkpt lat="51.406119363382459" lon="4.365983493626118">
        <ele>2.83</ele>
        <time>2021-08-08T12:46:43Z</time>
      </trkpt>
      <trkpt lat="51.406080974265933" lon="4.365901937708259">
        <ele>2.84</ele>
        <time>2021-08-08T12:46:50Z</time>
      </trkpt>
      <trkpt lat="51.405999837443233" lon="4.365786770358682">
        <ele>2.85</ele>
        <time>2021-08-08T12:46:56Z</time>
      </trkpt>
      <trkpt lat="51.405840497463942" lon="4.365501450374723">
        <ele>2.84</ele>
        <time>2021-08-08T12:47:09Z</time>
      </trkpt>
      <trkpt lat="51.405821973457932" lon="4.365473706275225">
        <ele>2.84</ele>
        <time>2021-08-08T12:47:10Z</time>
      </trkpt>
      <trkpt lat="51.405810406431556" lon="4.365457864478231">
        <ele>2.84</ele>
        <time>2021-08-08T12:47:11Z</time>
      </trkpt>
      <trkpt lat="51.405793810263276" lon="4.365442609414458">
        <ele>2.83</ele>
        <time>2021-08-08T12:47:12Z</time>
      </trkpt>
      <trkpt lat="51.405736478045583" lon="4.365357365459204">
        <ele>2.83</ele>
        <time>2021-08-08T12:47:16Z</time>
      </trkpt>
      <trkpt lat="51.405715104192495" lon="4.365329369902611">
        <ele>2.82</ele>
        <time>2021-08-08T12:47:17Z</time>
      </trkpt>
      <trkpt lat="51.405695322901011" lon="4.365304056555033">
        <ele>2.82</ele>
        <time>2021-08-08T12:47:18Z</time>
      </trkpt>
      <trkpt lat="51.405683001503348" lon="4.365298943594098">
        <ele>2.81</ele>
        <time>2021-08-08T12:47:19Z</time>
      </trkpt>
      <trkpt lat="51.405665818601847" lon="4.36527413316071">
        <ele>2.81</ele>
        <time>2021-08-08T12:47:20Z</time>
      </trkpt>
      <trkpt lat="51.405638996511698" lon="4.365242868661881">
        <ele>2.8</ele>
        <time>2021-08-08T12:47:22Z</time>
      </trkpt>
      <trkpt lat="51.405621143057942" lon="4.365230882540345">
        <ele>2.8</ele>
        <time>2021-08-08T12:47:23Z</time>
      </trkpt>
      <trkpt lat="51.40554528683424" lon="4.365165336057544">
        <ele>2.79</ele>
        <time>2021-08-08T12:47:28Z</time>
      </trkpt>
      <trkpt lat="51.405533133074641" lon="4.365157540887594">
        <ele>2.79</ele>
        <time>2021-08-08T12:47:29Z</time>
      </trkpt>
      <trkpt lat="51.405505137518048" lon="4.365118565037847">
        <ele>2.79</ele>
        <time>2021-08-08T12:47:31Z</time>
      </trkpt>
      <trkpt lat="51.405488373711705" lon="4.365096185356379">
        <ele>2.79</ele>
        <time>2021-08-08T12:47:32Z</time>
      </trkpt>
      <trkpt lat="51.405327776446939" lon="4.364922847598791">
        <ele>2.8</ele>
        <time>2021-08-08T12:47:45Z</time>
      </trkpt>
      <trkpt lat="51.405316963791847" lon="4.364907341077924">
        <ele>2.8</ele>
        <time>2021-08-08T12:47:46Z</time>
      </trkpt>
      <trkpt lat="51.40529022552073" lon="4.364886973053217">
        <ele>2.8</ele>
        <time>2021-08-08T12:47:48Z</time>
      </trkpt>
      <trkpt lat="51.405266085639596" lon="4.364869622513652">
        <ele>2.79</ele>
        <time>2021-08-08T12:47:49Z</time>
      </trkpt>
      <trkpt lat="51.405248064547777" lon="4.36486417427659">
        <ele>2.79</ele>
        <time>2021-08-08T12:47:50Z</time>
      </trkpt>
      <trkpt lat="51.405230211094022" lon="4.364853361621499">
        <ele>2.79</ele>
        <time>2021-08-08T12:47:51Z</time>
      </trkpt>
      <trkpt lat="51.405078582465649" lon="4.364728638902307">
        <ele>2.77</ele>
        <time>2021-08-08T12:48:04Z</time>
      </trkpt>
      <trkpt lat="51.404982525855303" lon="4.364630738273263">
        <ele>2.79</ele>
        <time>2021-08-08T12:48:11Z</time>
      </trkpt>
      <trkpt lat="51.404958218336105" lon="4.364590002223849">
        <ele>2.78</ele>
        <time>2021-08-08T12:48:12Z</time>
      </trkpt>
      <trkpt lat="51.404942292720079" lon="4.364570891484618">
        <ele>2.78</ele>
        <time>2021-08-08T12:48:13Z</time>
      </trkpt>
      <trkpt lat="51.404929552227259" lon="4.364560162648559">
        <ele>2.75</ele>
        <time>2021-08-08T12:48:14Z</time>
      </trkpt>
      <trkpt lat="51.404847158119082" lon="4.364509535953403">
        <ele>4.18</ele>
        <time>2021-08-08T12:48:21Z</time>
      </trkpt>
      <trkpt lat="51.404792843386531" lon="4.364482797682285">
        <ele>4.18</ele>
        <time>2021-08-08T12:48:23Z</time>
      </trkpt>
      <trkpt lat="51.404688823968172" lon="4.364336533471942">
        <ele>4.19</ele>
        <time>2021-08-08T12:48:33Z</time>
      </trkpt>
      <trkpt lat="51.404450191184878" lon="4.364123633131385">
        <ele>4.26</ele>
        <time>2021-08-08T12:48:49Z</time>
      </trkpt>
      <trkpt lat="51.404199991375208" lon="4.363986421376467">
        <ele>4.21</ele>
        <time>2021-08-08T12:49:04Z</time>
      </trkpt>
      <trkpt lat="51.403988180682063" lon="4.363681068643928">
        <ele>4.19</ele>
        <time>2021-08-08T12:49:25Z</time>
      </trkpt>
      <trkpt lat="51.403953228145838" lon="4.363617282360792">
        <ele>4.2</ele>
        <time>2021-08-08T12:49:28Z</time>
      </trkpt>
      <trkpt lat="51.403807047754526" lon="4.363174131140113">
        <ele>4.12</ele>
        <time>2021-08-08T12:49:45Z</time>
      </trkpt>
      <trkpt lat="51.40376279130578" lon="4.36280851252377">
        <ele>6.01</ele>
        <time>2021-08-08T12:50:01Z</time>
      </trkpt>
      <trkpt lat="51.40358635224402" lon="4.361911900341511">
        <ele>5.86</ele>
        <time>2021-08-08T12:50:39Z</time>
      </trkpt>
      <trkpt lat="51.403538407757878" lon="4.36173252761364">
        <ele>5.82</ele>
        <time>2021-08-08T12:50:46Z</time>
      </trkpt>
      <trkpt lat="51.403404045850039" lon="4.360890816897154">
        <ele>5.54</ele>
        <time>2021-08-08T12:51:23Z</time>
      </trkpt>
      <trkpt lat="51.403360962867737" lon="4.360437020659447">
        <ele>5.33</ele>
        <time>2021-08-08T12:51:42Z</time>
      </trkpt>
      <trkpt lat="51.403393903747201" lon="4.359775604680181">
        <ele>4.97</ele>
        <time>2021-08-08T12:52:09Z</time>
      </trkpt>
      <trkpt lat="51.403422486037016" lon="4.359332537278533">
        <ele>4.77</ele>
        <time>2021-08-08T12:52:28Z</time>
      </trkpt>
      <trkpt lat="51.403457941487432" lon="4.358853260055184">
        <ele>4.56</ele>
        <time>2021-08-08T12:52:50Z</time>
      </trkpt>
      <trkpt lat="51.403514100238681" lon="4.358381358906627">
        <ele>4.41</ele>
        <time>2021-08-08T12:53:09Z</time>
      </trkpt>
      <trkpt lat="51.403554081916809" lon="4.357837541028857">
        <ele>4.19</ele>
        <time>2021-08-08T12:53:30Z</time>
      </trkpt>
      <trkpt lat="51.40360202640295" lon="4.35735977254808">
        <ele>3.94</ele>
        <time>2021-08-08T12:53:51Z</time>
      </trkpt>
      <trkpt lat="51.403628345578909" lon="4.356864150613546">
        <ele>3.82</ele>
        <time>2021-08-08T12:54:09Z</time>
      </trkpt>
      <trkpt lat="51.403701519593596" lon="4.356518229469657">
        <ele>3.52</ele>
        <time>2021-08-08T12:54:29Z</time>
      </trkpt>
      <trkpt lat="51.40376128256321" lon="4.356184881180525">
        <ele>3.3</ele>
        <time>2021-08-08T12:54:41Z</time>
      </trkpt>
      <trkpt lat="51.403765389695764" lon="4.356000646948814">
        <ele>3.18</ele>
        <time>2021-08-08T12:54:47Z</time>
      </trkpt>
      <trkpt lat="51.403814675286412" lon="4.354836149141192">
        <ele>2.71</ele>
        <time>2021-08-08T12:55:37Z</time>
      </trkpt>
      <trkpt lat="51.40382288955152" lon="4.354657027870417">
        <ele>2.68</ele>
        <time>2021-08-08T12:55:43Z</time>
      </trkpt>
      <trkpt lat="51.403817944228649" lon="4.354625763371587">
        <ele>2.67</ele>
        <time>2021-08-08T12:55:44Z</time>
      </trkpt>
      <trkpt lat="51.403806544840336" lon="4.354561055079103">
        <ele>2.67</ele>
        <time>2021-08-08T12:55:45Z</time>
      </trkpt>
      <trkpt lat="51.403801096603274" lon="4.354521660134196">
        <ele>2.64</ele>
        <time>2021-08-08T12:55:46Z</time>
      </trkpt>
      <trkpt lat="51.403796318918467" lon="4.354482600465417">
        <ele>2.61</ele>
        <time>2021-08-08T12:55:47Z</time>
      </trkpt>
      <trkpt lat="51.403770251199603" lon="4.354343125596643">
        <ele>2.56</ele>
        <time>2021-08-08T12:55:51Z</time>
      </trkpt>
      <trkpt lat="51.403766563162208" lon="4.354243967682123">
        <ele>0.18</ele>
        <time>2021-08-08T12:55:55Z</time>
      </trkpt>
      <trkpt lat="51.403765641152859" lon="4.354176158085465">
        <ele>0.18</ele>
        <time>2021-08-08T12:55:58Z</time>
      </trkpt>
      <trkpt lat="51.403703866526484" lon="4.353822022676468">
        <ele>0.11</ele>
        <time>2021-08-08T12:56:18Z</time>
      </trkpt>
      <trkpt lat="51.403626417741179" lon="4.353498397395015">
        <ele>0.05</ele>
        <time>2021-08-08T12:56:34Z</time>
      </trkpt>
      <trkpt lat="51.403607055544853" lon="4.353271164000034">
        <ele>-0.15</ele>
        <time>2021-08-08T12:56:56Z</time>
      </trkpt>
      <trkpt lat="51.403436232358217" lon="4.352635312825441">
        <ele>-0.36</ele>
        <time>2021-08-08T12:57:17Z</time>
      </trkpt>
      <trkpt lat="51.403405889868736" lon="4.352539004758">
        <ele>-0.45</ele>
        <time>2021-08-08T12:57:21Z</time>
      </trkpt>
      <trkpt lat="51.403403375297785" lon="4.352379078045487">
        <ele>-4.62</ele>
        <time>2021-08-08T12:57:30Z</time>
      </trkpt>
      <trkpt lat="51.40340069308877" lon="4.352353597059846">
        <ele>1.08</ele>
        <time>2021-08-08T12:57:31Z</time>
      </trkpt>
      <trkpt lat="51.403399603441358" lon="4.352335156872869">
        <ele>1.06</ele>
        <time>2021-08-08T12:57:32Z</time>
      </trkpt>
      <trkpt lat="51.403364986181259" lon="4.352160058915615">
        <ele>0.98</ele>
        <time>2021-08-08T12:57:39Z</time>
      </trkpt>
      <trkpt lat="51.403361214324832" lon="4.352105157449842">
        <ele>0.97</ele>
        <time>2021-08-08T12:57:41Z</time>
      </trkpt>
      <trkpt lat="51.403359705582261" lon="4.352074144408107">
        <ele>0.96</ele>
        <time>2021-08-08T12:57:42Z</time>
      </trkpt>
      <trkpt lat="51.403361717239022" lon="4.352051094174385">
        <ele>0.95</ele>
        <time>2021-08-08T12:57:43Z</time>
      </trkpt>
      <trkpt lat="51.403358951210976" lon="4.352029133588076">
        <ele>0.93</ele>
        <time>2021-08-08T12:57:44Z</time>
      </trkpt>
      <trkpt lat="51.403353167697787" lon="4.352009519934654">
        <ele>0.92</ele>
        <time>2021-08-08T12:57:45Z</time>
      </trkpt>
      <trkpt lat="51.40335182659328" lon="4.351983033120632">
        <ele>0.91</ele>
        <time>2021-08-08T12:57:46Z</time>
      </trkpt>
      <trkpt lat="51.403345791622996" lon="4.351953025907278">
        <ele>0.9</ele>
        <time>2021-08-08T12:57:47Z</time>
      </trkpt>
      <trkpt lat="51.403344115242362" lon="4.351932154968381">
        <ele>0.89</ele>
        <time>2021-08-08T12:57:48Z</time>
      </trkpt>
      <trkpt lat="51.403342522680759" lon="4.351907009258866">
        <ele>0.88</ele>
        <time>2021-08-08T12:57:49Z</time>
      </trkpt>
      <trkpt lat="51.403334559872746" lon="4.351878594607115">
        <ele>0.87</ele>
        <time>2021-08-08T12:57:50Z</time>
      </trkpt>
      <trkpt lat="51.403336655348539" lon="4.351859986782074">
        <ele>0.85</ele>
        <time>2021-08-08T12:57:51Z</time>
      </trkpt>
      <trkpt lat="51.403335398063064" lon="4.351837271824479">
        <ele>0.84</ele>
        <time>2021-08-08T12:57:52Z</time>
      </trkpt>
      <trkpt lat="51.403339169919491" lon="4.351817909628153">
        <ele>0.83</ele>
        <time>2021-08-08T12:57:53Z</time>
      </trkpt>
      <trkpt lat="51.403345540165901" lon="4.351800056174398">
        <ele>0.81</ele>
        <time>2021-08-08T12:57:54Z</time>
      </trkpt>
      <trkpt lat="51.403355179354548" lon="4.351786896586418">
        <ele>0.8</ele>
        <time>2021-08-08T12:57:55Z</time>
      </trkpt>
      <trkpt lat="51.403357442468405" lon="4.351733084768057">
        <ele>0.76</ele>
        <time>2021-08-08T12:57:58Z</time>
      </trkpt>
      <trkpt lat="51.403335314244032" lon="4.351082146167755">
        <ele>0.09</ele>
        <time>2021-08-08T12:58:24Z</time>
      </trkpt>
      <trkpt lat="51.403268426656723" lon="4.350701943039894">
        <ele>0.11</ele>
        <time>2021-08-08T12:58:39Z</time>
      </trkpt>
      <trkpt lat="51.403135322034359" lon="4.350205231457949">
        <ele>0.15</ele>
        <time>2021-08-08T12:58:59Z</time>
      </trkpt>
      <trkpt lat="51.403124677017331" lon="4.350188802927733">
        <ele>0.15</ele>
        <time>2021-08-08T12:59:00Z</time>
      </trkpt>
      <trkpt lat="51.40310606919229" lon="4.350145300850272">
        <ele>0.16</ele>
        <time>2021-08-08T12:59:04Z</time>
      </trkpt>
      <trkpt lat="51.403077403083444" lon="4.350026864558458">
        <ele>-2</ele>
        <time>2021-08-08T12:59:17Z</time>
      </trkpt>
      <trkpt lat="51.403068182989955" lon="4.349978165701032">
        <ele>0.41</ele>
        <time>2021-08-08T12:59:25Z</time>
      </trkpt>
      <trkpt lat="51.403061393648386" lon="4.349819496273994">
        <ele>-3.94</ele>
        <time>2021-08-08T12:59:35Z</time>
      </trkpt>
      <trkpt lat="51.403059884905815" lon="4.349797368049622">
        <ele>-0.69</ele>
        <time>2021-08-08T12:59:36Z</time>
      </trkpt>
      <trkpt lat="51.403061142191291" lon="4.349752860143781">
        <ele>0.27</ele>
        <time>2021-08-08T12:59:38Z</time>
      </trkpt>
      <trkpt lat="51.403003809973598" lon="4.349489500746131">
        <ele>0.35</ele>
        <time>2021-08-08T12:59:49Z</time>
      </trkpt>
      <trkpt lat="51.402920661494136" lon="4.349096892401576">
        <ele>0.41</ele>
        <time>2021-08-08T13:00:08Z</time>
      </trkpt>
      <trkpt lat="51.402938179671764" lon="4.34879757463932">
        <ele>0.52</ele>
        <time>2021-08-08T13:00:28Z</time>
      </trkpt>
      <trkpt lat="51.403249651193619" lon="4.346456676721573">
        <ele>-0.31</ele>
        <time>2021-08-08T13:02:31Z</time>
      </trkpt>
      <trkpt lat="51.403558775782585" lon="4.344975929707289">
        <ele>-3.17</ele>
        <time>2021-08-08T13:04:02Z</time>
      </trkpt>
      <trkpt lat="51.403617616742849" lon="4.344564713537693">
        <ele>-3.39</ele>
        <time>2021-08-08T13:04:23Z</time>
      </trkpt>
      <trkpt lat="51.403640331700444" lon="4.344431106001139">
        <ele>0.23</ele>
        <time>2021-08-08T13:04:28Z</time>
      </trkpt>
      <trkpt lat="51.403646785765886" lon="4.344389447942376">
        <ele>0.22</ele>
        <time>2021-08-08T13:04:29Z</time>
      </trkpt>
      <trkpt lat="51.403650138527155" lon="4.344361620023847">
        <ele>-2.8</ele>
        <time>2021-08-08T13:04:30Z</time>
      </trkpt>
      <trkpt lat="51.403650222346187" lon="4.344317531213164">
        <ele>-2.81</ele>
        <time>2021-08-08T13:04:31Z</time>
      </trkpt>
      <trkpt lat="51.403685174882412" lon="4.343829117715359">
        <ele>-3.07</ele>
        <time>2021-08-08T13:04:50Z</time>
      </trkpt>
      <trkpt lat="51.403666734695435" lon="4.343492751941085">
        <ele>-4.05</ele>
        <time>2021-08-08T13:05:06Z</time>
      </trkpt>
      <trkpt lat="51.40364452265203" lon="4.343340620398521">
        <ele>-4.35</ele>
        <time>2021-08-08T13:05:32Z</time>
      </trkpt>
      <trkpt lat="51.403631111606956" lon="4.343111123889685">
        <ele>-4.58</ele>
        <time>2021-08-08T13:05:53Z</time>
      </trkpt>
      <trkpt lat="51.403784332796931" lon="4.342894367873669">
        <ele>-4.75</ele>
        <time>2021-08-08T13:06:12Z</time>
      </trkpt>
      <trkpt lat="51.403827667236328" lon="4.34281624853611">
        <ele>-7.78</ele>
        <time>2021-08-08T13:06:17Z</time>
      </trkpt>
      <trkpt lat="51.403831019997597" lon="4.342788169160485">
        <ele>-7.79</ele>
        <time>2021-08-08T13:06:18Z</time>
      </trkpt>
      <trkpt lat="51.403831439092755" lon="4.342738632112742">
        <ele>-5.22</ele>
        <time>2021-08-08T13:06:20Z</time>
      </trkpt>
      <trkpt lat="51.4037393219769" lon="4.342371420934796">
        <ele>-5.36</ele>
        <time>2021-08-08T13:06:36Z</time>
      </trkpt>
      <trkpt lat="51.403699675574899" lon="4.342188779264689">
        <ele>-5.5</ele>
        <time>2021-08-08T13:06:53Z</time>
      </trkpt>
      <trkpt lat="51.403688108548522" lon="4.342170255258679">
        <ele>-11.33</ele>
        <time>2021-08-08T13:07:04Z</time>
      </trkpt>
      <trkpt lat="51.403689533472061" lon="4.342171680182219">
        <ele>-5.26</ele>
        <time>2021-08-08T13:07:05Z</time>
      </trkpt>
      <trkpt lat="51.403688360005617" lon="4.342150893062353">
        <ele>-8.029999999999999</ele>
        <time>2021-08-08T13:07:12Z</time>
      </trkpt>
      <trkpt lat="51.403646450489759" lon="4.342076545581222">
        <ele>-8.140000000000001</ele>
        <time>2021-08-08T13:07:27Z</time>
      </trkpt>
      <trkpt lat="51.403639158234" lon="4.342033378779888">
        <ele>-8.19</ele>
        <time>2021-08-08T13:07:42Z</time>
      </trkpt>
      <trkpt lat="51.403654748573899" lon="4.342018626630306">
        <ele>-9.19</ele>
        <time>2021-08-08T13:07:46Z</time>
      </trkpt>
      <trkpt lat="51.403622981160879" lon="4.341997755691409">
        <ele>-15.43</ele>
        <time>2021-08-08T13:07:58Z</time>
      </trkpt>
      <trkpt lat="51.403625328093767" lon="4.342004209756851">
        <ele>-5.96</ele>
        <time>2021-08-08T13:07:59Z</time>
      </trkpt>
      <trkpt lat="51.403624070808291" lon="4.342001024633646">
        <ele>-5.96</ele>
        <time>2021-08-08T13:08:00Z</time>
      </trkpt>
      <trkpt lat="51.40361376106739" lon="4.342010831460357">
        <ele>-8.18</ele>
        <time>2021-08-08T13:08:13Z</time>
      </trkpt>
      <trkpt lat="51.403614180162549" lon="4.341961881145835">
        <ele>-8.109999999999999</ele>
        <time>2021-08-08T13:08:22Z</time>
      </trkpt>
      <trkpt lat="51.403637984767556" lon="4.341986775398254">
        <ele>-7.9</ele>
        <time>2021-08-08T13:08:49Z</time>
      </trkpt>
      <trkpt lat="51.403609653934836" lon="4.341989206150174">
        <ele>-7.53</ele>
        <time>2021-08-08T13:09:36Z</time>
      </trkpt>
      <trkpt lat="51.403668746352196" lon="4.342012172564864">
        <ele>-7.28</ele>
        <time>2021-08-08T13:10:04Z</time>
      </trkpt>
      <trkpt lat="51.403706213459373" lon="4.341912344098091">
        <ele>-7.03</ele>
        <time>2021-08-08T13:10:31Z</time>
      </trkpt>
      <trkpt lat="51.403719037771225" lon="4.341914691030979">
        <ele>-6.56</ele>
        <time>2021-08-08T13:11:18Z</time>
      </trkpt>
      <trkpt lat="51.403867062181234" lon="4.341868842020631">
        <ele>-6.39</ele>
        <time>2021-08-08T13:11:32Z</time>
      </trkpt>
      <trkpt lat="51.404046937823296" lon="4.341777982190251">
        <ele>-6.17</ele>
        <time>2021-08-08T13:11:52Z</time>
      </trkpt>
      <trkpt lat="51.404252462089062" lon="4.341675639152527">
        <ele>-5.98</ele>
        <time>2021-08-08T13:12:10Z</time>
      </trkpt>
      <trkpt lat="51.404286241158843" lon="4.341657869517803">
        <ele>-5.96</ele>
        <time>2021-08-08T13:12:13Z</time>
      </trkpt>
      <trkpt lat="51.404529400169849" lon="4.341555191203952">
        <ele>-5.84</ele>
        <time>2021-08-08T13:12:28Z</time>
      </trkpt>
      <trkpt lat="51.404621182009578" lon="4.341501295566559">
        <ele>-5.76</ele>
        <time>2021-08-08T13:12:37Z</time>
      </trkpt>
      <trkpt lat="51.404803656041622" lon="4.341392414644361">
        <ele>-5.66</ele>
        <time>2021-08-08T13:12:53Z</time>
      </trkpt>
      <trkpt lat="51.404871046543121" lon="4.341341285035014">
        <ele>-5.63</ele>
        <time>2021-08-08T13:12:59Z</time>
      </trkpt>
      <trkpt lat="51.405003732070327" lon="4.341230979189277">
        <ele>-5.59</ele>
        <time>2021-08-08T13:13:11Z</time>
      </trkpt>
      <trkpt lat="51.405087383463979" lon="4.341220837086439">
        <ele>-3.27</ele>
        <time>2021-08-08T13:13:18Z</time>
      </trkpt>
      <trkpt lat="51.405249992385507" lon="4.341123187914491">
        <ele>-0.83</ele>
        <time>2021-08-08T13:13:33Z</time>
      </trkpt>
      <trkpt lat="51.405304726213217" lon="4.341076500713825">
        <ele>-3.37</ele>
        <time>2021-08-08T13:13:42Z</time>
      </trkpt>
      <trkpt lat="51.405360382050276" lon="4.340940462425351">
        <ele>-3.39</ele>
        <time>2021-08-08T13:13:54Z</time>
      </trkpt>
      <trkpt lat="51.405348898842931" lon="4.340473422780633">
        <ele>-4.99</ele>
        <time>2021-08-08T13:14:16Z</time>
      </trkpt>
      <trkpt lat="51.405186373740435" lon="4.339675130322576">
        <ele>-6.58</ele>
        <time>2021-08-08T13:14:55Z</time>
      </trkpt>
      <trkpt lat="51.405199533328414" lon="4.339644955471158">
        <ele>-6.59</ele>
        <time>2021-08-08T13:14:57Z</time>
      </trkpt>
      <trkpt lat="51.405225349590182" lon="4.339511515572667">
        <ele>-6.63</ele>
        <time>2021-08-08T13:15:04Z</time>
      </trkpt>
      <trkpt lat="51.405225433409214" lon="4.339352510869503">
        <ele>-10.73</ele>
        <time>2021-08-08T13:15:11Z</time>
      </trkpt>
      <trkpt lat="51.405225014314055" lon="4.339335579425097">
        <ele>-4.73</ele>
        <time>2021-08-08T13:15:12Z</time>
      </trkpt>
      <trkpt lat="51.405225265771151" lon="4.339318228885531">
        <ele>-4.74</ele>
        <time>2021-08-08T13:15:13Z</time>
      </trkpt>
      <trkpt lat="51.405215794220567" lon="4.339271793141961">
        <ele>-7.14</ele>
        <time>2021-08-08T13:15:15Z</time>
      </trkpt>
      <trkpt lat="51.405162904411554" lon="4.338959148153663">
        <ele>-7.29</ele>
        <time>2021-08-08T13:15:32Z</time>
      </trkpt>
      <trkpt lat="51.405090820044279" lon="4.338452629745007">
        <ele>-7.5</ele>
        <time>2021-08-08T13:15:51Z</time>
      </trkpt>
      <trkpt lat="51.405038936063647" lon="4.338106205686927">
        <ele>-7.73</ele>
        <time>2021-08-08T13:16:10Z</time>
      </trkpt>
      <trkpt lat="51.405008509755135" lon="4.337750896811485">
        <ele>-7.93</ele>
        <time>2021-08-08T13:16:25Z</time>
      </trkpt>
      <trkpt lat="51.404994763433933" lon="4.337605303153396">
        <ele>-11.34</ele>
        <time>2021-08-08T13:16:31Z</time>
      </trkpt>
      <trkpt lat="51.405000546947122" lon="4.33757814578712">
        <ele>-7.81</ele>
        <time>2021-08-08T13:16:32Z</time>
      </trkpt>
      <trkpt lat="51.405000295490026" lon="4.337556688115001">
        <ele>-7.81</ele>
        <time>2021-08-08T13:16:33Z</time>
      </trkpt>
      <trkpt lat="51.404958553612232" lon="4.337336998432875">
        <ele>-7.97</ele>
        <time>2021-08-08T13:16:43Z</time>
      </trkpt>
      <trkpt lat="51.404944388195872" lon="4.337286287918687">
        <ele>-8.02</ele>
        <time>2021-08-08T13:16:46Z</time>
      </trkpt>
      <trkpt lat="51.404875908046961" lon="4.336931984871626">
        <ele>-8.300000000000001</ele>
        <time>2021-08-08T13:17:03Z</time>
      </trkpt>
      <trkpt lat="51.404806673526764" lon="4.336547004058957">
        <ele>-8.720000000000001</ele>
        <time>2021-08-08T13:17:26Z</time>
      </trkpt>
      <trkpt lat="51.404808685183525" lon="4.336520433425903">
        <ele>-8.73</ele>
        <time>2021-08-08T13:17:27Z</time>
      </trkpt>
      <trkpt lat="51.404780186712742" lon="4.336314657703042">
        <ele>-8.98</ele>
        <time>2021-08-08T13:17:40Z</time>
      </trkpt>
      <trkpt lat="51.404747748747468" lon="4.336175015196204">
        <ele>-9.18</ele>
        <time>2021-08-08T13:17:52Z</time>
      </trkpt>
      <trkpt lat="51.404732074588537" lon="4.336125142872334">
        <ele>-9.23</ele>
        <time>2021-08-08T13:17:55Z</time>
      </trkpt>
      <trkpt lat="51.404673904180527" lon="4.335652068257332">
        <ele>-9.539999999999999</ele>
        <time>2021-08-08T13:18:16Z</time>
      </trkpt>
      <trkpt lat="51.404643310233951" lon="4.335237164050341">
        <ele>-9.84</ele>
        <time>2021-08-08T13:18:37Z</time>
      </trkpt>
      <trkpt lat="51.404598215594888" lon="4.335100371390581">
        <ele>-12.31</ele>
        <time>2021-08-08T13:18:47Z</time>
      </trkpt>
      <trkpt lat="51.404599472880363" lon="4.335068268701434">
        <ele>-12.34</ele>
        <time>2021-08-08T13:18:49Z</time>
      </trkpt>
      <trkpt lat="51.404592180624604" lon="4.335038512945175">
        <ele>-12.369999999999999</ele>
        <time>2021-08-08T13:18:51Z</time>
      </trkpt>
      <trkpt lat="51.404550187289715" lon="4.334843885153532">
        <ele>-12.57</ele>
        <time>2021-08-08T13:19:00Z</time>
      </trkpt>
      <trkpt lat="51.404530741274357" lon="4.334818320348859">
        <ele>-13.34</ele>
        <time>2021-08-08T13:19:03Z</time>
      </trkpt>
      <trkpt lat="51.404339969158173" lon="4.333379566669464">
        <ele>-12.74</ele>
        <time>2021-08-08T13:20:01Z</time>
      </trkpt>
      <trkpt lat="51.40420300886035" lon="4.332965752109885">
        <ele>-12.970000000000001</ele>
        <time>2021-08-08T13:20:17Z</time>
      </trkpt>
      <trkpt lat="51.404139390215278" lon="4.332751678302884">
        <ele>-13.039999999999999</ele>
        <time>2021-08-08T13:20:24Z</time>
      </trkpt>
      <trkpt lat="51.404010560363531" lon="4.332342809066176">
        <ele>-13.15</ele>
        <time>2021-08-08T13:20:37Z</time>
      </trkpt>
      <trkpt lat="51.404087422415614" lon="4.331874260678887">
        <ele>-13.32</ele>
        <time>2021-08-08T13:21:12Z</time>
      </trkpt>
      <trkpt lat="51.40411701053381" lon="4.331863867118955">
        <ele>-13.33</ele>
        <time>2021-08-08T13:21:14Z</time>
      </trkpt>
      <trkpt lat="51.404408700764179" lon="4.331730008125305">
        <ele>-13.42</ele>
        <time>2021-08-08T13:21:37Z</time>
      </trkpt>
      <trkpt lat="51.404667031019926" lon="4.331660773605108">
        <ele>-12.529999999999999</ele>
        <time>2021-08-08T13:21:57Z</time>
      </trkpt>
      <trkpt lat="51.404845733195543" lon="4.331626994535327">
        <ele>-11.75</ele>
        <time>2021-08-08T13:22:14Z</time>
      </trkpt>
      <trkpt lat="51.404938353225589" lon="4.331589443609119">
        <ele>-11.77</ele>
        <time>2021-08-08T13:22:23Z</time>
      </trkpt>
      <trkpt lat="51.40514756552875" lon="4.331571171060205">
        <ele>-11.82</ele>
        <time>2021-08-08T13:22:37Z</time>
      </trkpt>
      <trkpt lat="51.405419055372477" lon="4.331569829955697">
        <ele>-10.960000000000001</ele>
        <time>2021-08-08T13:22:57Z</time>
      </trkpt>
      <trkpt lat="51.405434645712376" lon="4.331544265151024">
        <ele>-10.960000000000001</ele>
        <time>2021-08-08T13:22:59Z</time>
      </trkpt>
      <trkpt lat="51.405587447807193" lon="4.331257687881589">
        <ele>-10.18</ele>
        <time>2021-08-08T13:23:12Z</time>
      </trkpt>
      <trkpt lat="51.405627429485321" lon="4.331016540527344">
        <ele>-10.199999999999999</ele>
        <time>2021-08-08T13:23:22Z</time>
      </trkpt>
      <trkpt lat="51.405638074502349" lon="4.330988964065909">
        <ele>-10.199999999999999</ele>
        <time>2021-08-08T13:23:23Z</time>
      </trkpt>
      <trkpt lat="51.405684510245919" lon="4.330618567764759">
        <ele>-9.17</ele>
        <time>2021-08-08T13:23:40Z</time>
      </trkpt>
      <trkpt lat="51.405844688415527" lon="4.329659594222903">
        <ele>-9.289999999999999</ele>
        <time>2021-08-08T13:24:19Z</time>
      </trkpt>
      <trkpt lat="51.405878718942404" lon="4.32951140217483">
        <ele>-9.279999999999999</ele>
        <time>2021-08-08T13:24:25Z</time>
      </trkpt>
      <trkpt lat="51.405919874086976" lon="4.329328257590532">
        <ele>-13.16</ele>
        <time>2021-08-08T13:24:33Z</time>
      </trkpt>
      <trkpt lat="51.405918030068278" lon="4.329310404136777">
        <ele>-9.85</ele>
        <time>2021-08-08T13:24:34Z</time>
      </trkpt>
      <trkpt lat="51.405914593487978" lon="4.329065568745136">
        <ele>-9.810000000000001</ele>
        <time>2021-08-08T13:24:43Z</time>
      </trkpt>
      <trkpt lat="51.405908055603504" lon="4.328881502151489">
        <ele>-9.76</ele>
        <time>2021-08-08T13:24:51Z</time>
      </trkpt>
      <trkpt lat="51.405861871317029" lon="4.328557876870036">
        <ele>-9.85</ele>
        <time>2021-08-08T13:25:05Z</time>
      </trkpt>
      <trkpt lat="51.405843598768115" lon="4.328345144167543">
        <ele>-9.789999999999999</ele>
        <time>2021-08-08T13:25:16Z</time>
      </trkpt>
      <trkpt lat="51.405780147761106" lon="4.327897299081087">
        <ele>-9.640000000000001</ele>
        <time>2021-08-08T13:25:35Z</time>
      </trkpt>
      <trkpt lat="51.405710158869624" lon="4.327722704038024">
        <ele>-9.66</ele>
        <time>2021-08-08T13:25:45Z</time>
      </trkpt>
      <trkpt lat="51.405686773359776" lon="4.327557748183608">
        <ele>-9.619999999999999</ele>
        <time>2021-08-08T13:25:52Z</time>
      </trkpt>
      <trkpt lat="51.405683755874634" lon="4.327288269996643">
        <ele>-11.91</ele>
        <time>2021-08-08T13:26:01Z</time>
      </trkpt>
      <trkpt lat="51.405588202178478" lon="4.326893649995327">
        <ele>-11.859999999999999</ele>
        <time>2021-08-08T13:26:16Z</time>
      </trkpt>
      <trkpt lat="51.405470604076982" lon="4.32645745575428">
        <ele>-11.83</ele>
        <time>2021-08-08T13:26:33Z</time>
      </trkpt>
      <trkpt lat="51.405415618792176" lon="4.326143804937601">
        <ele>-11.81</ele>
        <time>2021-08-08T13:26:50Z</time>
      </trkpt>
      <trkpt lat="51.405331213027239" lon="4.325773743912578">
        <ele>-11.76</ele>
        <time>2021-08-08T13:27:06Z</time>
      </trkpt>
      <trkpt lat="51.405257703736424" lon="4.325494710355997">
        <ele>-11.039999999999999</ele>
        <time>2021-08-08T13:28:35Z</time>
      </trkpt>
      <trkpt lat="51.405249573290348" lon="4.325440479442477">
        <ele>-11.02</ele>
        <time>2021-08-08T13:28:40Z</time>
      </trkpt>
      <trkpt lat="51.405227947980165" lon="4.325415836647153">
        <ele>-10.779999999999999</ele>
        <time>2021-08-08T13:29:06Z</time>
      </trkpt>
      <trkpt lat="51.405234904959798" lon="4.325402844697237">
        <ele>-7.41</ele>
        <time>2021-08-08T13:29:30Z</time>
      </trkpt>
      <trkpt lat="51.4052520878613" lon="4.325315421447158">
        <ele>-10.91</ele>
        <time>2021-08-08T13:29:35Z</time>
      </trkpt>
      <trkpt lat="51.405249992385507" lon="4.325299914926291">
        <ele>-10.890000000000001</ele>
        <time>2021-08-08T13:29:36Z</time>
      </trkpt>
      <trkpt lat="51.40525066293776" lon="4.325276864692569">
        <ele>-10.91</ele>
        <time>2021-08-08T13:29:37Z</time>
      </trkpt>
      <trkpt lat="51.405251584947109" lon="4.325226405635476">
        <ele>-8.44</ele>
        <time>2021-08-08T13:29:40Z</time>
      </trkpt>
      <trkpt lat="51.405167514458299" lon="4.324765652418137">
        <ele>-8.119999999999999</ele>
        <time>2021-08-08T13:30:00Z</time>
      </trkpt>
      <trkpt lat="51.40514999628067" lon="4.324429454281926">
        <ele>-7.98</ele>
        <time>2021-08-08T13:30:16Z</time>
      </trkpt>
      <trkpt lat="51.405149828642607" lon="4.324319902807474">
        <ele>-7.76</ele>
        <time>2021-08-08T13:30:42Z</time>
      </trkpt>
      <trkpt lat="51.405142368748784" lon="4.324294086545706">
        <ele>-11.58</ele>
        <time>2021-08-08T13:30:59Z</time>
      </trkpt>
      <trkpt lat="51.405143961310387" lon="4.324296014383435">
        <ele>-8.050000000000001</ele>
        <time>2021-08-08T13:31:00Z</time>
      </trkpt>
      <trkpt lat="51.405131723731756" lon="4.324203981086612">
        <ele>-7.84</ele>
        <time>2021-08-08T13:31:23Z</time>
      </trkpt>
      <trkpt lat="51.405124766752124" lon="4.324121000245214">
        <ele>-7.54</ele>
        <time>2021-08-08T13:31:48Z</time>
      </trkpt>
      <trkpt lat="51.405007252469659" lon="4.324199119582772">
        <ele>-7.16</ele>
        <time>2021-08-08T13:32:21Z</time>
      </trkpt>
      <trkpt lat="51.404923098161817" lon="4.324297439306974">
        <ele>-7.03</ele>
        <time>2021-08-08T13:32:35Z</time>
      </trkpt>
      <trkpt lat="51.404816061258316" lon="4.324318561702967">
        <ele>-6.92</ele>
        <time>2021-08-08T13:32:41Z</time>
      </trkpt>
      <trkpt lat="51.404794435948133" lon="4.324318813160062">
        <ele>-6.9</ele>
        <time>2021-08-08T13:32:42Z</time>
      </trkpt>
      <trkpt lat="51.404770715162158" lon="4.324319902807474">
        <ele>-6.88</ele>
        <time>2021-08-08T13:32:43Z</time>
      </trkpt>
      <trkpt lat="51.404748503118753" lon="4.324335493147373">
        <ele>-6.86</ele>
        <time>2021-08-08T13:32:44Z</time>
      </trkpt>
      <trkpt lat="51.40473123639822" lon="4.324345551431179">
        <ele>-6.84</ele>
        <time>2021-08-08T13:32:45Z</time>
      </trkpt>
      <trkpt lat="51.404714053496718" lon="4.324349323287606">
        <ele>-6.84</ele>
        <time>2021-08-08T13:32:46Z</time>
      </trkpt>
      <trkpt lat="51.404696702957153" lon="4.324356615543366">
        <ele>-6.84</ele>
        <time>2021-08-08T13:32:47Z</time>
      </trkpt>
      <trkpt lat="51.40467893332243" lon="4.324360890313983">
        <ele>-6.84</ele>
        <time>2021-08-08T13:32:48Z</time>
      </trkpt>
      <trkpt lat="51.404661582782865" lon="4.324368517845869">
        <ele>-6.84</ele>
        <time>2021-08-08T13:32:49Z</time>
      </trkpt>
      <trkpt lat="51.404642974957824" lon="4.324368182569742">
        <ele>-6.83</ele>
        <time>2021-08-08T13:32:50Z</time>
      </trkpt>
      <trkpt lat="51.40461397357285" lon="4.324358040466905">
        <ele>-6.83</ele>
        <time>2021-08-08T13:32:51Z</time>
      </trkpt>
      <trkpt lat="51.404586983844638" lon="4.324344294145703">
        <ele>-6.84</ele>
        <time>2021-08-08T13:32:52Z</time>
      </trkpt>
      <trkpt lat="51.404552198946476" lon="4.324347982183099">
        <ele>-6.83</ele>
        <time>2021-08-08T13:32:53Z</time>
      </trkpt>
      <trkpt lat="51.404522359371185" lon="4.32435586117208">
        <ele>-6.83</ele>
        <time>2021-08-08T13:32:54Z</time>
      </trkpt>
      <trkpt lat="51.404452957212925" lon="4.324364578351378">
        <ele>-6.81</ele>
        <time>2021-08-08T13:32:57Z</time>
      </trkpt>
      <trkpt lat="51.404314069077373" lon="4.324428029358387">
        <ele>-6.8</ele>
        <time>2021-08-08T13:33:02Z</time>
      </trkpt>
      <trkpt lat="51.404283726587892" lon="4.324423419311643">
        <ele>-6.79</ele>
        <time>2021-08-08T13:33:03Z</time>
      </trkpt>
      <trkpt lat="51.404162105172873" lon="4.324411097913981">
        <ele>-6.77</ele>
        <time>2021-08-08T13:33:08Z</time>
      </trkpt>
      <trkpt lat="51.404142994433641" lon="4.324436411261559">
        <ele>-6.77</ele>
        <time>2021-08-08T13:33:09Z</time>
      </trkpt>
      <trkpt lat="51.403591129928827" lon="4.324398944154382">
        <ele>-9.07</ele>
        <time>2021-08-08T13:33:27Z</time>
      </trkpt>
      <trkpt lat="51.403346881270409" lon="4.324325853958726">
        <ele>-9.109999999999999</ele>
        <time>2021-08-08T13:33:31Z</time>
      </trkpt>
      <trkpt lat="51.403101040050387" lon="4.324272377416492">
        <ele>-9.119999999999999</ele>
        <time>2021-08-08T13:33:35Z</time>
      </trkpt>
      <trkpt lat="51.403018981218338" lon="4.324235329404473">
        <ele>-9.119999999999999</ele>
        <time>2021-08-08T13:33:36Z</time>
      </trkpt>
      <trkpt lat="51.402943376451731" lon="4.324194509536028">
        <ele>-9.130000000000001</ele>
        <time>2021-08-08T13:33:37Z</time>
      </trkpt>
      <trkpt lat="51.402680352330208" lon="4.324107337743044">
        <ele>-9.17</ele>
        <time>2021-08-08T13:33:42Z</time>
      </trkpt>
      <trkpt lat="51.402443815022707" lon="4.324007174000144">
        <ele>-9.23</ele>
        <time>2021-08-08T13:33:49Z</time>
      </trkpt>
      <trkpt lat="51.402349099516869" lon="4.323915811255574">
        <ele>-9.24</ele>
        <time>2021-08-08T13:33:52Z</time>
      </trkpt>
      <trkpt lat="51.402336861938238" lon="4.323895946145058">
        <ele>-9.25</ele>
        <time>2021-08-08T13:33:53Z</time>
      </trkpt>
      <trkpt lat="51.402327055111527" lon="4.323873901739717">
        <ele>-9.26</ele>
        <time>2021-08-08T13:33:54Z</time>
      </trkpt>
      <trkpt lat="51.402317751199007" lon="4.323845990002155">
        <ele>-9.27</ele>
        <time>2021-08-08T13:33:55Z</time>
      </trkpt>
      <trkpt lat="51.402309536933899" lon="4.323822101578116">
        <ele>-9.26</ele>
        <time>2021-08-08T13:33:56Z</time>
      </trkpt>
      <trkpt lat="51.402045758441091" lon="4.323392445221543">
        <ele>-8.59</ele>
        <time>2021-08-08T13:34:09Z</time>
      </trkpt>
      <trkpt lat="51.402029413729906" lon="4.323330838233233">
        <ele>-8.59</ele>
        <time>2021-08-08T13:34:12Z</time>
      </trkpt>
      <trkpt lat="51.40187761746347" lon="4.322895314544439">
        <ele>-8.619999999999999</ele>
        <time>2021-08-08T13:34:30Z</time>
      </trkpt>
      <trkpt lat="51.401845095679164" lon="4.322582753375173">
        <ele>-9.890000000000001</ele>
        <time>2021-08-08T13:34:44Z</time>
      </trkpt>
      <trkpt lat="51.401813412085176" lon="4.322089897468686">
        <ele>-9.9</ele>
        <time>2021-08-08T13:35:02Z</time>
      </trkpt>
      <trkpt lat="51.40182682313025" lon="4.321963582187891">
        <ele>-9.93</ele>
        <time>2021-08-08T13:35:07Z</time>
      </trkpt>
      <trkpt lat="51.40177896246314" lon="4.32164347730577">
        <ele>-10.09</ele>
        <time>2021-08-08T13:35:20Z</time>
      </trkpt>
      <trkpt lat="51.401770915836096" lon="4.320641672238708">
        <ele>-12.720000000000001</ele>
        <time>2021-08-08T13:35:52Z</time>
      </trkpt>
      <trkpt lat="51.401792541146278" lon="4.320535892620683">
        <ele>-10.390000000000001</ele>
        <time>2021-08-08T13:35:56Z</time>
      </trkpt>
      <trkpt lat="51.401796648278832" lon="4.320300444960594">
        <ele>-11.82</ele>
        <time>2021-08-08T13:36:06Z</time>
      </trkpt>
      <trkpt lat="51.40179849229753" lon="4.320253254845738">
        <ele>-11.83</ele>
        <time>2021-08-08T13:36:08Z</time>
      </trkpt>
      <trkpt lat="51.401850711554289" lon="4.319829968735576">
        <ele>-12.449999999999999</ele>
        <time>2021-08-08T13:36:25Z</time>
      </trkpt>
      <trkpt lat="51.401812238618731" lon="4.319568956270814">
        <ele>-14.99</ele>
        <time>2021-08-08T13:36:38Z</time>
      </trkpt>
      <trkpt lat="51.401721378788352" lon="4.319507265463471">
        <ele>-12.02</ele>
        <time>2021-08-08T13:36:45Z</time>
      </trkpt>
      <trkpt lat="51.401529768481851" lon="4.319404000416398">
        <ele>-11.85</ele>
        <time>2021-08-08T13:36:58Z</time>
      </trkpt>
      <trkpt lat="51.401499006897211" lon="4.319376675412059">
        <ele>-11.84</ele>
        <time>2021-08-08T13:37:00Z</time>
      </trkpt>
      <trkpt lat="51.401228606700897" lon="4.319296376779676">
        <ele>-10.460000000000001</ele>
        <time>2021-08-08T13:37:17Z</time>
      </trkpt>
      <trkpt lat="51.401026602834463" lon="4.319195123389363">
        <ele>-10.41</ele>
        <time>2021-08-08T13:37:31Z</time>
      </trkpt>
      <trkpt lat="51.400871705263853" lon="4.319103509187698">
        <ele>-12.73</ele>
        <time>2021-08-08T13:37:42Z</time>
      </trkpt>
      <trkpt lat="51.400698618963361" lon="4.318905109539628">
        <ele>-12.539999999999999</ele>
        <time>2021-08-08T13:37:54Z</time>
      </trkpt>
      <trkpt lat="51.400479851290584" lon="4.318672008812428">
        <ele>-12.31</ele>
        <time>2021-08-08T13:38:10Z</time>
      </trkpt>
      <trkpt lat="51.400274913758039" lon="4.318498084321618">
        <ele>-13.16</ele>
        <time>2021-08-08T13:38:24Z</time>
      </trkpt>
      <trkpt lat="51.400056565180421" lon="4.318321561440826">
        <ele>-13.75</ele>
        <time>2021-08-08T13:38:39Z</time>
      </trkpt>
      <trkpt lat="51.399917844682932" lon="4.31818887591362">
        <ele>-13.73</ele>
        <time>2021-08-08T13:38:49Z</time>
      </trkpt>
      <trkpt lat="51.399709302932024" lon="4.317995505407453">
        <ele>-13.52</ele>
        <time>2021-08-08T13:39:04Z</time>
      </trkpt>
      <trkpt lat="51.399602433666587" lon="4.31792157702148">
        <ele>-11.1</ele>
        <time>2021-08-08T13:39:13Z</time>
      </trkpt>
      <trkpt lat="51.399468742311001" lon="4.317855024710298">
        <ele>-11.02</ele>
        <time>2021-08-08T13:39:26Z</time>
      </trkpt>
      <trkpt lat="51.399182500317693" lon="4.317747317254543">
        <ele>-10.91</ele>
        <time>2021-08-08T13:39:41Z</time>
      </trkpt>
      <trkpt lat="51.398914530873299" lon="4.317733990028501">
        <ele>-9.43</ele>
        <time>2021-08-08T13:39:54Z</time>
      </trkpt>
      <trkpt lat="51.398847391828895" lon="4.317750418558717">
        <ele>-11.869999999999999</ele>
        <time>2021-08-08T13:39:59Z</time>
      </trkpt>
      <trkpt lat="51.398835657164454" lon="4.317756034433842">
        <ele>-11.85</ele>
        <time>2021-08-08T13:40:00Z</time>
      </trkpt>
      <trkpt lat="51.398784779012203" lon="4.317810600623488">
        <ele>-9.449999999999999</ele>
        <time>2021-08-08T13:40:07Z</time>
      </trkpt>
      <trkpt lat="51.398734487593174" lon="4.317884193733335">
        <ele>-11.84</ele>
        <time>2021-08-08T13:40:13Z</time>
      </trkpt>
      <trkpt lat="51.398616470396519" lon="4.317948231473565">
        <ele>-11.789999999999999</ele>
        <time>2021-08-08T13:40:24Z</time>
      </trkpt>
      <trkpt lat="51.398553689941764" lon="4.317985363304615">
        <ele>-14.43</ele>
        <time>2021-08-08T13:40:27Z</time>
      </trkpt>
      <trkpt lat="51.398476408794522" lon="4.31798167526722">
        <ele>-12.08</ele>
        <time>2021-08-08T13:40:32Z</time>
      </trkpt>
      <trkpt lat="51.39836149290204" lon="4.318027859553695">
        <ele>-11.32</ele>
        <time>2021-08-08T13:40:39Z</time>
      </trkpt>
      <trkpt lat="51.398239200934768" lon="4.318075887858868">
        <ele>-13.67</ele>
        <time>2021-08-08T13:40:47Z</time>
      </trkpt>
      <trkpt lat="51.39801163226366" lon="4.318190384656191">
        <ele>-14.789999999999999</ele>
        <time>2021-08-08T13:41:03Z</time>
      </trkpt>
      <trkpt lat="51.396712437272072" lon="4.318320555612445">
        <ele>-17.710000000000001</ele>
        <time>2021-08-08T13:42:20Z</time>
      </trkpt>
      <trkpt lat="51.396573213860393" lon="4.318281160667539">
        <ele>-18.620000000000001</ele>
        <time>2021-08-08T13:42:28Z</time>
      </trkpt>
      <trkpt lat="51.396554941311479" lon="4.318284848704934">
        <ele>-18.629999999999999</ele>
        <time>2021-08-08T13:42:29Z</time>
      </trkpt>
      <trkpt lat="51.396541027352214" lon="4.318283088505268">
        <ele>-18.640000000000001</ele>
        <time>2021-08-08T13:42:30Z</time>
      </trkpt>
      <trkpt lat="51.396296275779605" lon="4.318290129303932">
        <ele>-20.760000000000002</ele>
        <time>2021-08-08T13:42:44Z</time>
      </trkpt>
      <trkpt lat="51.396096032112837" lon="4.318302618339658">
        <ele>-21.73</ele>
        <time>2021-08-08T13:42:56Z</time>
      </trkpt>
      <trkpt lat="51.395970471203327" lon="4.318303456529975">
        <ele>-21.719999999999999</ele>
        <time>2021-08-08T13:43:04Z</time>
      </trkpt>
      <trkpt lat="51.395887490361929" lon="4.318308904767036">
        <ele>-18.68</ele>
        <time>2021-08-08T13:43:09Z</time>
      </trkpt>
      <trkpt lat="51.395877348259091" lon="4.318316951394081">
        <ele>-18.68</ele>
        <time>2021-08-08T13:43:10Z</time>
      </trkpt>
      <trkpt lat="51.395834852010012" lon="4.318352658301592">
        <ele>-17.859999999999999</ele>
        <time>2021-08-08T13:43:14Z</time>
      </trkpt>
      <trkpt lat="51.395817501470447" lon="4.318366572260857">
        <ele>-17.859999999999999</ele>
        <time>2021-08-08T13:43:15Z</time>
      </trkpt>
      <trkpt lat="51.395759414881468" lon="4.318359950557351">
        <ele>-17.890000000000001</ele>
        <time>2021-08-08T13:43:18Z</time>
      </trkpt>
      <trkpt lat="51.395501252263784" lon="4.318413091823459">
        <ele>-20.489999999999998</ele>
        <time>2021-08-08T13:43:33Z</time>
      </trkpt>
      <trkpt lat="51.395482309162617" lon="4.318448128178716">
        <ele>-21.440000000000001</ele>
        <time>2021-08-08T13:43:35Z</time>
      </trkpt>
      <trkpt lat="51.395371248945594" lon="4.318574778735638">
        <ele>-21.390000000000001</ele>
        <time>2021-08-08T13:43:42Z</time>
      </trkpt>
      <trkpt lat="51.395354988053441" lon="4.318592045456171">
        <ele>-21.379999999999999</ele>
        <time>2021-08-08T13:43:43Z</time>
      </trkpt>
      <trkpt lat="51.395192043855786" lon="4.318716349080205">
        <ele>-21.329999999999998</ele>
        <time>2021-08-08T13:43:54Z</time>
      </trkpt>
      <trkpt lat="51.395174693316221" lon="4.318725904449821">
        <ele>-21.329999999999998</ele>
        <time>2021-08-08T13:43:55Z</time>
      </trkpt>
      <trkpt lat="51.395154325291514" lon="4.318732945248485">
        <ele>-21.329999999999998</ele>
        <time>2021-08-08T13:43:56Z</time>
      </trkpt>
      <trkpt lat="51.395104955881834" lon="4.318724228069186">
        <ele>-21.32</ele>
        <time>2021-08-08T13:43:58Z</time>
      </trkpt>
      <trkpt lat="51.394908735528588" lon="4.318806538358331">
        <ele>-21.25</ele>
        <time>2021-08-08T13:44:09Z</time>
      </trkpt>
      <trkpt lat="51.394845535978675" lon="4.318878790363669">
        <ele>-21.219999999999999</ele>
        <time>2021-08-08T13:44:14Z</time>
      </trkpt>
      <trkpt lat="51.394826844334602" lon="4.318883735686541">
        <ele>-21.219999999999999</ele>
        <time>2021-08-08T13:44:15Z</time>
      </trkpt>
      <trkpt lat="51.394812427461147" lon="4.318892452865839">
        <ele>-21.199999999999999</ele>
        <time>2021-08-08T13:44:16Z</time>
      </trkpt>
      <trkpt lat="51.394777474924922" lon="4.318919694051147">
        <ele>-21.199999999999999</ele>
        <time>2021-08-08T13:44:19Z</time>
      </trkpt>
      <trkpt lat="51.394734978675842" lon="4.318960765376687">
        <ele>-21.190000000000001</ele>
        <time>2021-08-08T13:44:23Z</time>
      </trkpt>
      <trkpt lat="51.394572285935283" lon="4.319208366796374">
        <ele>-18.82</ele>
        <time>2021-08-08T13:44:38Z</time>
      </trkpt>
      <trkpt lat="51.394401295110583" lon="4.3195282202214">
        <ele>-18.890000000000001</ele>
        <time>2021-08-08T13:44:53Z</time>
      </trkpt>
      <trkpt lat="51.39420373365283" lon="4.319874560460448">
        <ele>-18.210000000000001</ele>
        <time>2021-08-08T13:45:10Z</time>
      </trkpt>
      <trkpt lat="51.393607780337334" lon="4.320393819361925">
        <ele>-17.870000000000001</ele>
        <time>2021-08-08T13:45:58Z</time>
      </trkpt>
      <trkpt lat="51.393432347103953" lon="4.320448134094477">
        <ele>-17.960000000000001</ele>
        <time>2021-08-08T13:46:09Z</time>
      </trkpt>
      <trkpt lat="51.393248699605465" lon="4.320460706949234">
        <ele>-16.789999999999999</ele>
        <time>2021-08-08T13:46:21Z</time>
      </trkpt>
      <trkpt lat="51.393188433721662" lon="4.320472776889801">
        <ele>-19.239999999999998</ele>
        <time>2021-08-08T13:46:25Z</time>
      </trkpt>
      <trkpt lat="51.39312481507659" lon="4.320500856265426">
        <ele>-17.600000000000001</ele>
        <time>2021-08-08T13:46:29Z</time>
      </trkpt>
      <trkpt lat="51.392948795109987" lon="4.320649635046721">
        <ele>-17.739999999999998</ele>
        <time>2021-08-08T13:46:40Z</time>
      </trkpt>
      <trkpt lat="51.392936473712325" lon="4.32066815905273">
        <ele>-17.739999999999998</ele>
        <time>2021-08-08T13:46:41Z</time>
      </trkpt>
      <trkpt lat="51.392925241962075" lon="4.3206852581352">
        <ele>-17.719999999999999</ele>
        <time>2021-08-08T13:46:42Z</time>
      </trkpt>
      <trkpt lat="51.392917698249221" lon="4.320701435208321">
        <ele>-17.719999999999999</ele>
        <time>2021-08-08T13:46:43Z</time>
      </trkpt>
      <trkpt lat="51.392909232527018" lon="4.320715349167585">
        <ele>-17.73</ele>
        <time>2021-08-08T13:46:44Z</time>
      </trkpt>
      <trkpt lat="51.392894312739372" lon="4.320729933679104">
        <ele>-17.75</ele>
        <time>2021-08-08T13:46:45Z</time>
      </trkpt>
      <trkpt lat="51.392842680215836" lon="4.320773268118501">
        <ele>-17.77</ele>
        <time>2021-08-08T13:46:48Z</time>
      </trkpt>
      <trkpt lat="51.392828598618507" lon="4.32078056037426">
        <ele>-17.77</ele>
        <time>2021-08-08T13:46:49Z</time>
      </trkpt>
      <trkpt lat="51.392809404060245" lon="4.320795480161905">
        <ele>-17.77</ele>
        <time>2021-08-08T13:46:50Z</time>
      </trkpt>
      <trkpt lat="51.392789203673601" lon="4.320813668891788">
        <ele>-17.780000000000001</ele>
        <time>2021-08-08T13:46:51Z</time>
      </trkpt>
      <trkpt lat="51.392774870619178" lon="4.320827079936862">
        <ele>-17.780000000000001</ele>
        <time>2021-08-08T13:46:52Z</time>
      </trkpt>
      <trkpt lat="51.392757100984454" lon="4.320841329172254">
        <ele>-17.789999999999999</ele>
        <time>2021-08-08T13:46:53Z</time>
      </trkpt>
      <trkpt lat="51.392742767930031" lon="4.32084652595222">
        <ele>-17.789999999999999</ele>
        <time>2021-08-08T13:46:54Z</time>
      </trkpt>
      <trkpt lat="51.392729608342052" lon="4.320856500416994">
        <ele>-17.800000000000001</ele>
        <time>2021-08-08T13:46:55Z</time>
      </trkpt>
      <trkpt lat="51.392714520916343" lon="4.320870498195291">
        <ele>-17.809999999999999</ele>
        <time>2021-08-08T13:46:56Z</time>
      </trkpt>
      <trkpt lat="51.39270412735641" lon="4.320879634469748">
        <ele>-17.82</ele>
        <time>2021-08-08T13:46:57Z</time>
      </trkpt>
      <trkpt lat="51.39268702827394" lon="4.320901175960898">
        <ele>-17.82</ele>
        <time>2021-08-08T13:46:58Z</time>
      </trkpt>
      <trkpt lat="51.392671773210168" lon="4.320922465994954">
        <ele>-17.82</ele>
        <time>2021-08-08T13:46:59Z</time>
      </trkpt>
      <trkpt lat="51.392663894221187" lon="4.32093889452517">
        <ele>-17.829999999999998</ele>
        <time>2021-08-08T13:47:00Z</time>
      </trkpt>
      <trkpt lat="51.392650650814176" lon="4.320951551198959">
        <ele>-17.84</ele>
        <time>2021-08-08T13:47:01Z</time>
      </trkpt>
      <trkpt lat="51.392639838159084" lon="4.320967560634017">
        <ele>-17.850000000000001</ele>
        <time>2021-08-08T13:47:02Z</time>
      </trkpt>
      <trkpt lat="51.392628690227866" lon="4.320986503735185">
        <ele>-17.850000000000001</ele>
        <time>2021-08-08T13:47:03Z</time>
      </trkpt>
      <trkpt lat="51.392619805410504" lon="4.321012403815985">
        <ele>-17.859999999999999</ele>
        <time>2021-08-08T13:47:04Z</time>
      </trkpt>
      <trkpt lat="51.392613099887967" lon="4.321034951135516">
        <ele>-17.870000000000001</ele>
        <time>2021-08-08T13:47:05Z</time>
      </trkpt>
      <trkpt lat="51.392597509548068" lon="4.321066467091441">
        <ele>-17.879999999999999</ele>
        <time>2021-08-08T13:47:06Z</time>
      </trkpt>
      <trkpt lat="51.392440684139729" lon="4.321360252797604">
        <ele>-18.02</ele>
        <time>2021-08-08T13:47:21Z</time>
      </trkpt>
      <trkpt lat="51.392400534823537" lon="4.32142068631947">
        <ele>-18.050000000000001</ele>
        <time>2021-08-08T13:47:25Z</time>
      </trkpt>
      <trkpt lat="51.392372455447912" lon="4.321494782343507">
        <ele>-18.09</ele>
        <time>2021-08-08T13:47:29Z</time>
      </trkpt>
      <trkpt lat="51.392371030524373" lon="4.321516659110785">
        <ele>-18.100000000000001</ele>
        <time>2021-08-08T13:47:30Z</time>
      </trkpt>
      <trkpt lat="51.392369773238897" lon="4.321536356583238">
        <ele>-18.109999999999999</ele>
        <time>2021-08-08T13:47:31Z</time>
      </trkpt>
      <trkpt lat="51.392358625307679" lon="4.321558820083737">
        <ele>-20.420000000000002</ele>
        <time>2021-08-08T13:47:33Z</time>
      </trkpt>
      <trkpt lat="51.392350327223539" lon="4.321576170623303">
        <ele>-20.420000000000002</ele>
        <time>2021-08-08T13:47:34Z</time>
      </trkpt>
      <trkpt lat="51.392262484878302" lon="4.321686392650008">
        <ele>-21.32</ele>
        <time>2021-08-08T13:47:42Z</time>
      </trkpt>
      <trkpt lat="51.392236920073628" lon="4.321692511439323">
        <ele>-22.300000000000001</ele>
        <time>2021-08-08T13:47:43Z</time>
      </trkpt>
      <trkpt lat="51.392218815162778" lon="4.321707682684064">
        <ele>-22.309999999999999</ele>
        <time>2021-08-08T13:47:44Z</time>
      </trkpt>
      <trkpt lat="51.392050758004189" lon="4.321956625208259">
        <ele>-24.460000000000001</ele>
        <time>2021-08-08T13:47:56Z</time>
      </trkpt>
      <trkpt lat="51.391900051385164" lon="4.322233479470015">
        <ele>-24.43</ele>
        <time>2021-08-08T13:48:08Z</time>
      </trkpt>
      <trkpt lat="51.391851101070642" lon="4.322344372048974">
        <ele>-24.440000000000001</ele>
        <time>2021-08-08T13:48:13Z</time>
      </trkpt>
      <trkpt lat="51.391844814643264" lon="4.322364488616586">
        <ele>-24.440000000000001</ele>
        <time>2021-08-08T13:48:14Z</time>
      </trkpt>
      <trkpt lat="51.391840036958456" lon="4.322390640154481">
        <ele>-24.449999999999999</ele>
        <time>2021-08-08T13:48:15Z</time>
      </trkpt>
      <trkpt lat="51.391831487417221" lon="4.322412516921759">
        <ele>-24.449999999999999</ele>
        <time>2021-08-08T13:48:16Z</time>
      </trkpt>
      <trkpt lat="51.391824027523398" lon="4.322442440316081">
        <ele>-24.449999999999999</ele>
        <time>2021-08-08T13:48:17Z</time>
      </trkpt>
      <trkpt lat="51.391816232353449" lon="4.322466244921088">
        <ele>-24.449999999999999</ele>
        <time>2021-08-08T13:48:18Z</time>
      </trkpt>
      <trkpt lat="51.39180944301188" lon="4.322489211335778">
        <ele>-24.449999999999999</ele>
        <time>2021-08-08T13:48:19Z</time>
      </trkpt>
      <trkpt lat="51.391805084422231" lon="4.322512596845627">
        <ele>-24.449999999999999</ele>
        <time>2021-08-08T13:48:20Z</time>
      </trkpt>
      <trkpt lat="51.391800893470645" lon="4.322538832202554">
        <ele>-24.449999999999999</ele>
        <time>2021-08-08T13:48:21Z</time>
      </trkpt>
      <trkpt lat="51.391798881813884" lon="4.322564313188195">
        <ele>-24.449999999999999</ele>
        <time>2021-08-08T13:48:22Z</time>
      </trkpt>
      <trkpt lat="51.391804665327072" lon="4.322820045053959">
        <ele>-20.390000000000001</ele>
        <time>2021-08-08T13:48:29Z</time>
      </trkpt>
      <trkpt lat="51.391807096078992" lon="4.322877125814557">
        <ele>-20.390000000000001</ele>
        <time>2021-08-08T13:48:30Z</time>
      </trkpt>
      <trkpt lat="51.391802905127406" lon="4.32297351770103">
        <ele>-23.379999999999999</ele>
        <time>2021-08-08T13:48:32Z</time>
      </trkpt>
      <trkpt lat="51.391812460497022" lon="4.323482299223542">
        <ele>-24.199999999999999</ele>
        <time>2021-08-08T13:48:40Z</time>
      </trkpt>
      <trkpt lat="51.391824949532747" lon="4.323743395507336">
        <ele>-24.190000000000001</ele>
        <time>2021-08-08T13:48:44Z</time>
      </trkpt>
      <trkpt lat="51.391829391941428" lon="4.323811624199152">
        <ele>-24.18</ele>
        <time>2021-08-08T13:48:45Z</time>
      </trkpt>
      <trkpt lat="51.391832493245602" lon="4.323882786557078">
        <ele>-24.18</ele>
        <time>2021-08-08T13:48:46Z</time>
      </trkpt>
      <trkpt lat="51.391884963959455" lon="4.324302719905973">
        <ele>-24.120000000000001</ele>
        <time>2021-08-08T13:48:53Z</time>
      </trkpt>
      <trkpt lat="51.391956880688667" lon="4.324655514210463">
        <ele>-24.100000000000001</ele>
        <time>2021-08-08T13:48:59Z</time>
      </trkpt>
      <trkpt lat="51.391969453543425" lon="4.324716702103615">
        <ele>-24.100000000000001</ele>
        <time>2021-08-08T13:49:00Z</time>
      </trkpt>
      <trkpt lat="51.392015134915709" lon="4.324898840859532">
        <ele>-24.079999999999998</ele>
        <time>2021-08-08T13:49:03Z</time>
      </trkpt>
      <trkpt lat="51.392105408012867" lon="4.325298657640815">
        <ele>-24.07</ele>
        <time>2021-08-08T13:49:10Z</time>
      </trkpt>
      <trkpt lat="51.392114460468292" lon="4.325356744229794">
        <ele>-24.07</ele>
        <time>2021-08-08T13:49:11Z</time>
      </trkpt>
      <trkpt lat="51.392122926190495" lon="4.32541374117136">
        <ele>-24.059999999999999</ele>
        <time>2021-08-08T13:49:12Z</time>
      </trkpt>
      <trkpt lat="51.392194926738739" lon="4.326036013662815">
        <ele>-23.989999999999998</ele>
        <time>2021-08-08T13:49:22Z</time>
      </trkpt>
      <trkpt lat="51.39220523647964" lon="4.326173644512892">
        <ele>-23.98</ele>
        <time>2021-08-08T13:49:24Z</time>
      </trkpt>
      <trkpt lat="51.392242200672626" lon="4.326375229284167">
        <ele>-23.949999999999999</ele>
        <time>2021-08-08T13:49:27Z</time>
      </trkpt>
      <trkpt lat="51.392259551212192" lon="4.32643155567348">
        <ele>-23.940000000000001</ele>
        <time>2021-08-08T13:49:28Z</time>
      </trkpt>
      <trkpt lat="51.392282769083977" lon="4.326478829607368">
        <ele>-23.93</ele>
        <time>2021-08-08T13:49:29Z</time>
      </trkpt>
      <trkpt lat="51.392540847882628" lon="4.326939163729549">
        <ele>-23.850000000000001</ele>
        <time>2021-08-08T13:49:39Z</time>
      </trkpt>
      <trkpt lat="51.392630701884627" lon="4.327090037986636">
        <ele>-21.48</ele>
        <time>2021-08-08T13:49:48Z</time>
      </trkpt>
      <trkpt lat="51.392684681341052" lon="4.327355911955237">
        <ele>-20.5</ele>
        <time>2021-08-08T13:49:59Z</time>
      </trkpt>
      <trkpt lat="51.392684178426862" lon="4.327434366568923">
        <ele>-18.809999999999999</ele>
        <time>2021-08-08T13:50:02Z</time>
      </trkpt>
      <trkpt lat="51.392679233103991" lon="4.327545259147883">
        <ele>-18.760000000000002</ele>
        <time>2021-08-08T13:50:07Z</time>
      </trkpt>
      <trkpt lat="51.392674287781119" lon="4.327575098723173">
        <ele>-18.739999999999998</ele>
        <time>2021-08-08T13:50:08Z</time>
      </trkpt>
      <trkpt lat="51.392671270295978" lon="4.327600160613656">
        <ele>-18.73</ele>
        <time>2021-08-08T13:50:09Z</time>
      </trkpt>
      <trkpt lat="51.392672611400485" lon="4.327633185312152">
        <ele>-18.719999999999999</ele>
        <time>2021-08-08T13:50:10Z</time>
      </trkpt>
      <trkpt lat="51.392673952504992" lon="4.327663611620665">
        <ele>-18.710000000000001</ele>
        <time>2021-08-08T13:50:11Z</time>
      </trkpt>
      <trkpt lat="51.392674371600151" lon="4.327695295214653">
        <ele>-18.690000000000001</ele>
        <time>2021-08-08T13:50:12Z</time>
      </trkpt>
      <trkpt lat="51.392672024667263" lon="4.327722620218992">
        <ele>-18.68</ele>
        <time>2021-08-08T13:50:13Z</time>
      </trkpt>
      <trkpt lat="51.39266749843955" lon="4.327748185023665">
        <ele>-18.66</ele>
        <time>2021-08-08T13:50:14Z</time>
      </trkpt>
      <trkpt lat="51.392662217840552" lon="4.327773414552212">
        <ele>-18.649999999999999</ele>
        <time>2021-08-08T13:50:15Z</time>
      </trkpt>
      <trkpt lat="51.392659870907664" lon="4.327807109802961">
        <ele>-18.629999999999999</ele>
        <time>2021-08-08T13:50:16Z</time>
      </trkpt>
      <trkpt lat="51.392656518146396" lon="4.327838039025664">
        <ele>-18.620000000000001</ele>
        <time>2021-08-08T13:50:17Z</time>
      </trkpt>
      <trkpt lat="51.392651069909334" lon="4.327862933278084">
        <ele>-18.600000000000001</ele>
        <time>2021-08-08T13:50:18Z</time>
      </trkpt>
      <trkpt lat="51.392648639157414" lon="4.327889420092106">
        <ele>-18.59</ele>
        <time>2021-08-08T13:50:19Z</time>
      </trkpt>
      <trkpt lat="51.392644867300987" lon="4.327912554144859">
        <ele>-18.57</ele>
        <time>2021-08-08T13:50:20Z</time>
      </trkpt>
      <trkpt lat="51.392637407407165" lon="4.327933844178915">
        <ele>-18.559999999999999</ele>
        <time>2021-08-08T13:50:21Z</time>
      </trkpt>
      <trkpt lat="51.392625840380788" lon="4.327951781451702">
        <ele>-18.539999999999999</ele>
        <time>2021-08-08T13:50:22Z</time>
      </trkpt>
      <trkpt lat="51.392612596973777" lon="4.327968042343855">
        <ele>-18.530000000000001</ele>
        <time>2021-08-08T13:50:23Z</time>
      </trkpt>
      <trkpt lat="51.392597844824195" lon="4.327983465045691">
        <ele>-18.510000000000002</ele>
        <time>2021-08-08T13:50:24Z</time>
      </trkpt>
      <trkpt lat="51.392581751570106" lon="4.328003078699112">
        <ele>-18.5</ele>
        <time>2021-08-08T13:50:25Z</time>
      </trkpt>
      <trkpt lat="51.392567669972777" lon="4.328015148639679">
        <ele>-18.489999999999998</ele>
        <time>2021-08-08T13:50:26Z</time>
      </trkpt>
      <trkpt lat="51.392552750185132" lon="4.32802495546639">
        <ele>-18.469999999999999</ele>
        <time>2021-08-08T13:50:27Z</time>
      </trkpt>
      <trkpt lat="51.392541183158755" lon="4.32804012671113">
        <ele>-18.449999999999999</ele>
        <time>2021-08-08T13:50:28Z</time>
      </trkpt>
      <trkpt lat="51.392530454322696" lon="4.328057812526822">
        <ele>-18.440000000000001</ele>
        <time>2021-08-08T13:50:29Z</time>
      </trkpt>
      <trkpt lat="51.392416292801499" lon="4.328243974596262">
        <ele>-21.539999999999999</ele>
        <time>2021-08-08T13:50:39Z</time>
      </trkpt>
      <trkpt lat="51.392404641956091" lon="4.328261911869049">
        <ele>-21.52</ele>
        <time>2021-08-08T13:50:40Z</time>
      </trkpt>
      <trkpt lat="51.39238603413105" lon="4.32829812169075">
        <ele>-19.010000000000002</ele>
        <time>2021-08-08T13:50:42Z</time>
      </trkpt>
      <trkpt lat="51.392293833196163" lon="4.328416893258691">
        <ele>-18.920000000000002</ele>
        <time>2021-08-08T13:50:50Z</time>
      </trkpt>
      <trkpt lat="51.392239686101675" lon="4.328504148870707">
        <ele>-16.489999999999998</ele>
        <time>2021-08-08T13:50:55Z</time>
      </trkpt>
      <trkpt lat="51.392194172367454" lon="4.328588806092739">
        <ele>-16.449999999999999</ele>
        <time>2021-08-08T13:51:00Z</time>
      </trkpt>
      <trkpt lat="51.392181264236569" lon="4.328600456938148">
        <ele>-16.440000000000001</ele>
        <time>2021-08-08T13:51:01Z</time>
      </trkpt>
      <trkpt lat="51.392169864848256" lon="4.32862451300025">
        <ele>-16.43</ele>
        <time>2021-08-08T13:51:02Z</time>
      </trkpt>
      <trkpt lat="51.392159387469292" lon="4.328648652881384">
        <ele>-16.43</ele>
        <time>2021-08-08T13:51:03Z</time>
      </trkpt>
      <trkpt lat="51.392147736623883" lon="4.328675055876374">
        <ele>-16.420000000000002</ele>
        <time>2021-08-08T13:51:04Z</time>
      </trkpt>
      <trkpt lat="51.392138516530395" lon="4.32870171032846">
        <ele>-19.18</ele>
        <time>2021-08-08T13:51:05Z</time>
      </trkpt>
      <trkpt lat="51.392128961160779" lon="4.328724341467023">
        <ele>-19.18</ele>
        <time>2021-08-08T13:51:06Z</time>
      </trkpt>
      <trkpt lat="51.392026618123055" lon="4.329033633694053">
        <ele>-19.710000000000001</ele>
        <time>2021-08-08T13:51:20Z</time>
      </trkpt>
      <trkpt lat="51.391959395259619" lon="4.329446945339441">
        <ele>-20.399999999999999</ele>
        <time>2021-08-08T13:51:35Z</time>
      </trkpt>
      <trkpt lat="51.392001891508698" lon="4.329873081296682">
        <ele>-17.829999999999998</ele>
        <time>2021-08-08T13:51:49Z</time>
      </trkpt>
      <trkpt lat="51.392003064975142" lon="4.329896215349436">
        <ele>-17.82</ele>
        <time>2021-08-08T13:51:50Z</time>
      </trkpt>
      <trkpt lat="51.391997449100018" lon="4.330027475953102">
        <ele>-20.300000000000001</ele>
        <time>2021-08-08T13:51:56Z</time>
      </trkpt>
      <trkpt lat="51.391989234834909" lon="4.330054046586156">
        <ele>-20.300000000000001</ele>
        <time>2021-08-08T13:51:57Z</time>
      </trkpt>
      <trkpt lat="51.391978170722723" lon="4.330077599734068">
        <ele>-20.289999999999999</ele>
        <time>2021-08-08T13:51:58Z</time>
      </trkpt>
      <trkpt lat="51.391818663105369" lon="4.330273820087314">
        <ele>-19.510000000000002</ele>
        <time>2021-08-08T13:52:10Z</time>
      </trkpt>
      <trkpt lat="51.391756134107709" lon="4.330340959131718">
        <ele>-19.5</ele>
        <time>2021-08-08T13:52:14Z</time>
      </trkpt>
      <trkpt lat="51.391747333109379" lon="4.330366356298327">
        <ele>-19.5</ele>
        <time>2021-08-08T13:52:15Z</time>
      </trkpt>
      <trkpt lat="51.391733419150114" lon="4.330390077084303">
        <ele>-19.5</ele>
        <time>2021-08-08T13:52:16Z</time>
      </trkpt>
      <trkpt lat="51.391718415543437" lon="4.330409606918693">
        <ele>-19.489999999999998</ele>
        <time>2021-08-08T13:52:17Z</time>
      </trkpt>
      <trkpt lat="51.391704669222236" lon="4.330424861982465">
        <ele>-19.489999999999998</ele>
        <time>2021-08-08T13:52:18Z</time>
      </trkpt>
      <trkpt lat="51.391688659787178" lon="4.330440117046237">
        <ele>-19.489999999999998</ele>
        <time>2021-08-08T13:52:19Z</time>
      </trkpt>
      <trkpt lat="51.391484560444951" lon="4.330686796456575">
        <ele>-22.059999999999999</ele>
        <time>2021-08-08T13:52:33Z</time>
      </trkpt>
      <trkpt lat="51.39147425070405" lon="4.330707751214504">
        <ele>-22.079999999999998</ele>
        <time>2021-08-08T13:52:34Z</time>
      </trkpt>
      <trkpt lat="51.39143418520689" lon="4.330799113959074">
        <ele>-18.870000000000001</ele>
        <time>2021-08-08T13:52:38Z</time>
      </trkpt>
      <trkpt lat="51.391406944021583" lon="4.330833815038204">
        <ele>-17.449999999999999</ele>
        <time>2021-08-08T13:52:40Z</time>
      </trkpt>
      <trkpt lat="51.391231007874012" lon="4.330828869715333">
        <ele>-16.539999999999999</ele>
        <time>2021-08-08T13:52:50Z</time>
      </trkpt>
      <trkpt lat="51.391167221590877" lon="4.330822331830859">
        <ele>-19.469999999999999</ele>
        <time>2021-08-08T13:52:54Z</time>
      </trkpt>
      <trkpt lat="51.391135873273015" lon="4.330812944099307">
        <ele>-19.469999999999999</ele>
        <time>2021-08-08T13:52:56Z</time>
      </trkpt>
      <trkpt lat="51.391120282933116" lon="4.330796431750059">
        <ele>-19.469999999999999</ele>
        <time>2021-08-08T13:52:57Z</time>
      </trkpt>
      <trkpt lat="51.39110486023128" lon="4.330790480598807">
        <ele>-20.489999999999998</ele>
        <time>2021-08-08T13:52:58Z</time>
      </trkpt>
      <trkpt lat="51.391087677329779" lon="4.33078863658011">
        <ele>-20.489999999999998</ele>
        <time>2021-08-08T13:52:59Z</time>
      </trkpt>
      <trkpt lat="51.391074266284704" lon="4.330796599388123">
        <ele>-20.489999999999998</ele>
        <time>2021-08-08T13:53:00Z</time>
      </trkpt>
      <trkpt lat="51.391055742278695" lon="4.330799700692296">
        <ele>-20.489999999999998</ele>
        <time>2021-08-08T13:53:01Z</time>
      </trkpt>
      <trkpt lat="51.391038978472352" lon="4.330806070938706">
        <ele>-20.489999999999998</ele>
        <time>2021-08-08T13:53:02Z</time>
      </trkpt>
      <trkpt lat="51.390904448926449" lon="4.330797689035535">
        <ele>-20.48</ele>
        <time>2021-08-08T13:53:10Z</time>
      </trkpt>
      <trkpt lat="51.390701606869698" lon="4.330675983801484">
        <ele>-20.489999999999998</ele>
        <time>2021-08-08T13:53:22Z</time>
      </trkpt>
      <trkpt lat="51.390498764812946" lon="4.330610102042556">
        <ele>-20.510000000000002</ele>
        <time>2021-08-08T13:53:34Z</time>
      </trkpt>
      <trkpt lat="51.390450820326805" lon="4.330613538622856">
        <ele>-20.52</ele>
        <time>2021-08-08T13:53:37Z</time>
      </trkpt>
      <trkpt lat="51.390407821163535" lon="4.330600881949067">
        <ele>-20.52</ele>
        <time>2021-08-08T13:53:40Z</time>
      </trkpt>
      <trkpt lat="51.390352500602603" lon="4.330548578873277">
        <ele>-16.98</ele>
        <time>2021-08-08T13:53:45Z</time>
      </trkpt>
      <trkpt lat="51.390332216396928" lon="4.330541538074613">
        <ele>-16.989999999999998</ele>
        <time>2021-08-08T13:53:46Z</time>
      </trkpt>
      <trkpt lat="51.390220150351524" lon="4.330500215291977">
        <ele>-17.02</ele>
        <time>2021-08-08T13:53:52Z</time>
      </trkpt>
      <trkpt lat="51.390167260542512" lon="4.330470040440559">
        <ele>-21.66</ele>
        <time>2021-08-08T13:53:55Z</time>
      </trkpt>
      <trkpt lat="51.390147479251027" lon="4.330460065975785">
        <ele>-21.670000000000002</ele>
        <time>2021-08-08T13:53:56Z</time>
      </trkpt>
      <trkpt lat="51.390104312449694" lon="4.33040164411068">
        <ele>-23.469999999999999</ele>
        <time>2021-08-08T13:54:00Z</time>
      </trkpt>
      <trkpt lat="51.390010518953204" lon="4.330007946118712">
        <ele>-23.449999999999999</ele>
        <time>2021-08-08T13:54:16Z</time>
      </trkpt>
      <trkpt lat="51.389979841187596" lon="4.329972742125392">
        <ele>-20.399999999999999</ele>
        <time>2021-08-08T13:54:18Z</time>
      </trkpt>
      <trkpt lat="51.389960227534175" lon="4.329961761832237">
        <ele>-20.390000000000001</ele>
        <time>2021-08-08T13:54:19Z</time>
      </trkpt>
      <trkpt lat="51.389651438221335" lon="4.329865705221891">
        <ele>-20.379999999999999</ele>
        <time>2021-08-08T13:54:36Z</time>
      </trkpt>
      <trkpt lat="51.389632411301136" lon="4.329859083518386">
        <ele>-26.629999999999999</ele>
        <time>2021-08-08T13:54:37Z</time>
      </trkpt>
      <trkpt lat="51.389614557847381" lon="4.329853216186166">
        <ele>-26.719999999999999</ele>
        <time>2021-08-08T13:54:38Z</time>
      </trkpt>
      <trkpt lat="51.389598045498133" lon="4.329847181215882">
        <ele>-20.73</ele>
        <time>2021-08-08T13:54:39Z</time>
      </trkpt>
      <trkpt lat="51.389580443501472" lon="4.329841649159789">
        <ele>-20.710000000000001</ele>
        <time>2021-08-08T13:54:40Z</time>
      </trkpt>
      <trkpt lat="51.389340553432703" lon="4.32975372299552">
        <ele>-20.670000000000002</ele>
        <time>2021-08-08T13:54:54Z</time>
      </trkpt>
      <trkpt lat="51.389325549826026" lon="4.329751124605537">
        <ele>-20.670000000000002</ele>
        <time>2021-08-08T13:54:55Z</time>
      </trkpt>
      <trkpt lat="51.389310294762254" lon="4.329757494851947">
        <ele>-20.66</ele>
        <time>2021-08-08T13:54:56Z</time>
      </trkpt>
      <trkpt lat="51.389052718877792" lon="4.329688930884004">
        <ele>-20.600000000000001</ele>
        <time>2021-08-08T13:55:11Z</time>
      </trkpt>
      <trkpt lat="51.388810146600008" lon="4.329591952264309">
        <ele>-20.620000000000001</ele>
        <time>2021-08-08T13:55:25Z</time>
      </trkpt>
      <trkpt lat="51.388514013960958" lon="4.329545767977834">
        <ele>-20.43</ele>
        <time>2021-08-08T13:55:41Z</time>
      </trkpt>
      <trkpt lat="51.38841787353158" lon="4.329530764371157">
        <ele>-20.379999999999999</ele>
        <time>2021-08-08T13:55:47Z</time>
      </trkpt>
      <trkpt lat="51.388402953743935" lon="4.329522298648953">
        <ele>-20.370000000000001</ele>
        <time>2021-08-08T13:55:48Z</time>
      </trkpt>
      <trkpt lat="51.388194663450122" lon="4.329464128240943">
        <ele>-20.280000000000001</ele>
        <time>2021-08-08T13:56:01Z</time>
      </trkpt>
      <trkpt lat="51.388007327914238" lon="4.329444598406553">
        <ele>-20.190000000000001</ele>
        <time>2021-08-08T13:56:13Z</time>
      </trkpt>
      <trkpt lat="51.387991067022085" lon="4.329435713589191">
        <ele>-20.170000000000002</ele>
        <time>2021-08-08T13:56:14Z</time>
      </trkpt>
      <trkpt lat="51.387975057587028" lon="4.329423308372498">
        <ele>-20.170000000000002</ele>
        <time>2021-08-08T13:56:15Z</time>
      </trkpt>
      <trkpt lat="51.387748997658491" lon="4.329355834051967">
        <ele>-20.07</ele>
        <time>2021-08-08T13:56:28Z</time>
      </trkpt>
      <trkpt lat="51.387533415108919" lon="4.329334711655974">
        <ele>-19.969999999999999</ele>
        <time>2021-08-08T13:56:42Z</time>
      </trkpt>
      <trkpt lat="51.387413050979376" lon="4.329310739412904">
        <ele>-16.629999999999999</ele>
        <time>2021-08-08T13:56:50Z</time>
      </trkpt>
      <trkpt lat="51.387398215010762" lon="4.329318199306727">
        <ele>-16.629999999999999</ele>
        <time>2021-08-08T13:56:51Z</time>
      </trkpt>
      <trkpt lat="51.387312132865191" lon="4.3296511285007">
        <ele>-16.530000000000001</ele>
        <time>2021-08-08T13:57:04Z</time>
      </trkpt>
      <trkpt lat="51.387289417907596" lon="4.329771744087338">
        <ele>-14.529999999999999</ele>
        <time>2021-08-08T13:57:09Z</time>
      </trkpt>
      <trkpt lat="51.387267792597413" lon="4.329852210357785">
        <ele>-14.49</ele>
        <time>2021-08-08T13:57:13Z</time>
      </trkpt>
      <trkpt lat="51.387259578332305" lon="4.329857071861625">
        <ele>-17.829999999999998</ele>
        <time>2021-08-08T13:57:14Z</time>
      </trkpt>
      <trkpt lat="51.387234851717949" lon="4.329860340803862">
        <ele>-19.280000000000001</ele>
        <time>2021-08-08T13:57:16Z</time>
      </trkpt>
      <trkpt lat="51.387018850073218" lon="4.329732013866305">
        <ele>-20.059999999999999</ele>
        <time>2021-08-08T13:57:29Z</time>
      </trkpt>
      <trkpt lat="51.386975599452853" lon="4.329692283645272">
        <ele>-22.460000000000001</ele>
        <time>2021-08-08T13:57:32Z</time>
      </trkpt>
      <trkpt lat="51.386945424601436" lon="4.329663449898362">
        <ele>-19.710000000000001</ele>
        <time>2021-08-08T13:57:34Z</time>
      </trkpt>
      <trkpt lat="51.386783989146352" lon="4.329597316682339">
        <ele>-17.59</ele>
        <time>2021-08-08T13:57:47Z</time>
      </trkpt>
      <trkpt lat="51.38677024282515" lon="4.32958859950304">
        <ele>-17.579999999999998</ele>
        <time>2021-08-08T13:57:48Z</time>
      </trkpt>
      <trkpt lat="51.386758172884583" lon="4.329576026648283">
        <ele>-17.57</ele>
        <time>2021-08-08T13:57:49Z</time>
      </trkpt>
      <trkpt lat="51.386744845658541" lon="4.329561525955796">
        <ele>-17.57</ele>
        <time>2021-08-08T13:57:50Z</time>
      </trkpt>
      <trkpt lat="51.386734033003449" lon="4.329546522349119">
        <ele>-17.57</ele>
        <time>2021-08-08T13:57:51Z</time>
      </trkpt>
      <trkpt lat="51.386723974719644" lon="4.329530261456966">
        <ele>-17.489999999999998</ele>
        <time>2021-08-08T13:57:52Z</time>
      </trkpt>
      <trkpt lat="51.386711988598108" lon="4.329510731622577">
        <ele>-17.550000000000001</ele>
        <time>2021-08-08T13:57:53Z</time>
      </trkpt>
      <trkpt lat="51.386700086295605" lon="4.329491034150124">
        <ele>-17.469999999999999</ele>
        <time>2021-08-08T13:57:54Z</time>
      </trkpt>
      <trkpt lat="51.386531861498952" lon="4.329292550683022">
        <ele>-17.48</ele>
        <time>2021-08-08T13:58:08Z</time>
      </trkpt>
      <trkpt lat="51.386520462110639" lon="4.329273775219917">
        <ele>-17.489999999999998</ele>
        <time>2021-08-08T13:58:09Z</time>
      </trkpt>
      <trkpt lat="51.38628987595439" lon="4.328979905694723">
        <ele>-17.460000000000001</ele>
        <time>2021-08-08T13:58:25Z</time>
      </trkpt>
      <trkpt lat="51.386279733851552" lon="4.328964399173856">
        <ele>-17.41</ele>
        <time>2021-08-08T13:58:26Z</time>
      </trkpt>
      <trkpt lat="51.386269675567746" lon="4.328947551548481">
        <ele>-17.43</ele>
        <time>2021-08-08T13:58:27Z</time>
      </trkpt>
      <trkpt lat="51.386255845427513" lon="4.328929530456662">
        <ele>-17.359999999999999</ele>
        <time>2021-08-08T13:58:28Z</time>
      </trkpt>
      <trkpt lat="51.38624251820147" lon="4.328904049471021">
        <ele>-16.5</ele>
        <time>2021-08-08T13:58:29Z</time>
      </trkpt>
      <trkpt lat="51.386227514594793" lon="4.328888962045312">
        <ele>-16.399999999999999</ele>
        <time>2021-08-08T13:58:30Z</time>
      </trkpt>
      <trkpt lat="51.386122237890959" lon="4.328777734190226">
        <ele>-16.440000000000001</ele>
        <time>2021-08-08T13:58:37Z</time>
      </trkpt>
      <trkpt lat="51.385947559028864" lon="4.328537005931139">
        <ele>-16.489999999999998</ele>
        <time>2021-08-08T13:58:52Z</time>
      </trkpt>
      <trkpt lat="51.385911181569099" lon="4.328498030081391">
        <ele>-19.260000000000002</ele>
        <time>2021-08-08T13:58:57Z</time>
      </trkpt>
      <trkpt lat="51.385876815766096" lon="4.328458467498422">
        <ele>-19.120000000000001</ele>
        <time>2021-08-08T13:59:00Z</time>
      </trkpt>
      <trkpt lat="51.385756954550743" lon="4.328337265178561">
        <ele>-19.16</ele>
        <time>2021-08-08T13:59:10Z</time>
      </trkpt>
      <trkpt lat="51.385745219886303" lon="4.328320166096091">
        <ele>-19.239999999999998</ele>
        <time>2021-08-08T13:59:11Z</time>
      </trkpt>
      <trkpt lat="51.385729881003499" lon="4.328290745615959">
        <ele>-19.190000000000001</ele>
        <time>2021-08-08T13:59:12Z</time>
      </trkpt>
      <trkpt lat="51.385713452473283" lon="4.328265180811286">
        <ele>-19.199999999999999</ele>
        <time>2021-08-08T13:59:13Z</time>
      </trkpt>
      <trkpt lat="51.38569375500083" lon="4.328245734795928">
        <ele>-19.199999999999999</ele>
        <time>2021-08-08T13:59:14Z</time>
      </trkpt>
      <trkpt lat="51.385653354227543" lon="4.328193934634328">
        <ele>-14.65</ele>
        <time>2021-08-08T13:59:17Z</time>
      </trkpt>
      <trkpt lat="51.385635333135724" lon="4.328171974048019">
        <ele>-17.600000000000001</ele>
        <time>2021-08-08T13:59:18Z</time>
      </trkpt>
      <trkpt lat="51.385597195476294" lon="4.328128471970558">
        <ele>-18.43</ele>
        <time>2021-08-08T13:59:20Z</time>
      </trkpt>
      <trkpt lat="51.385459648445249" lon="4.3279829621315">
        <ele>-18.510000000000002</ele>
        <time>2021-08-08T13:59:29Z</time>
      </trkpt>
      <trkpt lat="51.385195534676313" lon="4.327784478664398">
        <ele>-19.48</ele>
        <time>2021-08-08T13:59:45Z</time>
      </trkpt>
      <trkpt lat="51.385054215788841" lon="4.327654307708144">
        <ele>-20.239999999999998</ele>
        <time>2021-08-08T13:59:55Z</time>
      </trkpt>
      <trkpt lat="51.38503803871572" lon="4.327645171433687">
        <ele>-20.239999999999998</ele>
        <time>2021-08-08T13:59:56Z</time>
      </trkpt>
      <trkpt lat="51.385023705661297" lon="4.327635951340199">
        <ele>-20.23</ele>
        <time>2021-08-08T13:59:57Z</time>
      </trkpt>
      <trkpt lat="51.384895546361804" lon="4.327582390978932">
        <ele>-18.199999999999999</ele>
        <time>2021-08-08T14:00:05Z</time>
      </trkpt>
      <trkpt lat="51.38471994549036" lon="4.327733181416988">
        <ele>-18.219999999999999</ele>
        <time>2021-08-08T14:00:18Z</time>
      </trkpt>
      <trkpt lat="51.384602347388864" lon="4.328038869425654">
        <ele>-18.079999999999998</ele>
        <time>2021-08-08T14:00:33Z</time>
      </trkpt>
      <trkpt lat="51.384480558335781" lon="4.328363919630647">
        <ele>-18.039999999999999</ele>
        <time>2021-08-08T14:00:48Z</time>
      </trkpt>
      <trkpt lat="51.384463962167501" lon="4.328405996784568">
        <ele>-18.030000000000001</ele>
        <time>2021-08-08T14:00:51Z</time>
      </trkpt>
      <trkpt lat="51.384454490616918" lon="4.328420078381896">
        <ele>-18.039999999999999</ele>
        <time>2021-08-08T14:00:52Z</time>
      </trkpt>
      <trkpt lat="51.384443677961826" lon="4.328435836359859">
        <ele>-18.030000000000001</ele>
        <time>2021-08-08T14:00:53Z</time>
      </trkpt>
      <trkpt lat="51.384305963292718" lon="4.328674636781216">
        <ele>-20.32</ele>
        <time>2021-08-08T14:01:06Z</time>
      </trkpt>
      <trkpt lat="51.384214013814926" lon="4.328795671463013">
        <ele>-20.25</ele>
        <time>2021-08-08T14:01:16Z</time>
      </trkpt>
      <trkpt lat="51.384067917242646" lon="4.328941181302071">
        <ele>-20.09</ele>
        <time>2021-08-08T14:01:28Z</time>
      </trkpt>
      <trkpt lat="51.383928442373872" lon="4.3290139362216">
        <ele>-20.02</ele>
        <time>2021-08-08T14:01:38Z</time>
      </trkpt>
      <trkpt lat="51.38391176238656" lon="4.329024413600564">
        <ele>-20</ele>
        <time>2021-08-08T14:01:39Z</time>
      </trkpt>
      <trkpt lat="51.383896842598915" lon="4.329031286761165">
        <ele>-20.010000000000002</ele>
        <time>2021-08-08T14:01:40Z</time>
      </trkpt>
      <trkpt lat="51.383831715211272" lon="4.32906380854547">
        <ele>-20.02</ele>
        <time>2021-08-08T14:01:44Z</time>
      </trkpt>
      <trkpt lat="51.383817046880722" lon="4.329071519896388">
        <ele>-20.010000000000002</ele>
        <time>2021-08-08T14:01:45Z</time>
      </trkpt>
      <trkpt lat="51.383799444884062" lon="4.32907847687602">
        <ele>-20</ele>
        <time>2021-08-08T14:01:46Z</time>
      </trkpt>
      <trkpt lat="51.383780417963862" lon="4.329083422198892">
        <ele>-20</ele>
        <time>2021-08-08T14:01:47Z</time>
      </trkpt>
      <trkpt lat="51.383764324709773" lon="4.329088116064668">
        <ele>-19.98</ele>
        <time>2021-08-08T14:01:48Z</time>
      </trkpt>
      <trkpt lat="51.383747309446335" lon="4.329095659777522">
        <ele>-19.98</ele>
        <time>2021-08-08T14:01:49Z</time>
      </trkpt>
      <trkpt lat="51.383732641115785" lon="4.329105885699391">
        <ele>-19.969999999999999</ele>
        <time>2021-08-08T14:01:50Z</time>
      </trkpt>
      <trkpt lat="51.383721325546503" lon="4.329116698354483">
        <ele>-19.98</ele>
        <time>2021-08-08T14:01:51Z</time>
      </trkpt>
      <trkpt lat="51.383697353303432" lon="4.329132875427604">
        <ele>-19.98</ele>
        <time>2021-08-08T14:01:53Z</time>
      </trkpt>
      <trkpt lat="51.383502054959536" lon="4.32920454069972">
        <ele>-17.530000000000001</ele>
        <time>2021-08-08T14:02:05Z</time>
      </trkpt>
      <trkpt lat="51.383410021662712" lon="4.32924753986299">
        <ele>-17.5</ele>
        <time>2021-08-08T14:02:11Z</time>
      </trkpt>
      <trkpt lat="51.383207179605961" lon="4.329320713877678">
        <ele>-17.469999999999999</ele>
        <time>2021-08-08T14:02:23Z</time>
      </trkpt>
      <trkpt lat="51.383013892918825" lon="4.329398665577173">
        <ele>-21.18</ele>
        <time>2021-08-08T14:02:35Z</time>
      </trkpt>
      <trkpt lat="51.382992435246706" lon="4.329401683062315">
        <ele>-16.050000000000001</ele>
        <time>2021-08-08T14:02:36Z</time>
      </trkpt>
      <trkpt lat="51.382901072502136" lon="4.329394893720746">
        <ele>-18.039999999999999</ele>
        <time>2021-08-08T14:02:41Z</time>
      </trkpt>
      <trkpt lat="51.382867712527514" lon="4.329399419948459">
        <ele>-13.609999999999999</ele>
        <time>2021-08-08T14:02:43Z</time>
      </trkpt>
      <trkpt lat="51.382855223491788" lon="4.329403694719076">
        <ele>-13.529999999999999</ele>
        <time>2021-08-08T14:02:44Z</time>
      </trkpt>
      <trkpt lat="51.382843237370253" lon="4.329406293109059">
        <ele>-17.440000000000001</ele>
        <time>2021-08-08T14:02:45Z</time>
      </trkpt>
      <trkpt lat="51.382831335067749" lon="4.329406712204218">
        <ele>-17.32</ele>
        <time>2021-08-08T14:02:46Z</time>
      </trkpt>
      <trkpt lat="51.382790934294462" lon="4.32942733168602">
        <ele>-18.68</ele>
        <time>2021-08-08T14:02:49Z</time>
      </trkpt>
      <trkpt lat="51.382693871855736" lon="4.329424733296037">
        <ele>-18.530000000000001</ele>
        <time>2021-08-08T14:02:56Z</time>
      </trkpt>
      <trkpt lat="51.382665457203984" lon="4.329415848478675">
        <ele>-18.539999999999999</ele>
        <time>2021-08-08T14:02:58Z</time>
      </trkpt>
      <trkpt lat="51.382652968168259" lon="4.329418279230595">
        <ele>-18.469999999999999</ele>
        <time>2021-08-08T14:02:59Z</time>
      </trkpt>
      <trkpt lat="51.382386591285467" lon="4.329298585653305">
        <ele>-19.34</ele>
        <time>2021-08-08T14:03:14Z</time>
      </trkpt>
      <trkpt lat="51.382218785583973" lon="4.329270925372839">
        <ele>-20.18</ele>
        <time>2021-08-08T14:03:25Z</time>
      </trkpt>
      <trkpt lat="51.381946373730898" lon="4.329251730814576">
        <ele>-20.149999999999999</ele>
        <time>2021-08-08T14:03:40Z</time>
      </trkpt>
      <trkpt lat="51.381671950221062" lon="4.329231446608901">
        <ele>-20.120000000000001</ele>
        <time>2021-08-08T14:03:51Z</time>
      </trkpt>
      <trkpt lat="51.381140202283859" lon="4.329167911782861">
        <ele>-20.039999999999999</ele>
        <time>2021-08-08T14:04:04Z</time>
      </trkpt>
      <trkpt lat="51.380875669419765" lon="4.329137820750475">
        <ele>-19.989999999999998</ele>
        <time>2021-08-08T14:04:10Z</time>
      </trkpt>
      <trkpt lat="51.380832083523273" lon="4.329127175733447">
        <ele>-19.960000000000001</ele>
        <time>2021-08-08T14:04:11Z</time>
      </trkpt>
      <trkpt lat="51.380507368594408" lon="4.32905551046133">
        <ele>-19.920000000000002</ele>
        <time>2021-08-08T14:04:19Z</time>
      </trkpt>
      <trkpt lat="51.380465375259519" lon="4.32902374304831">
        <ele>-19.920000000000002</ele>
        <time>2021-08-08T14:04:20Z</time>
      </trkpt>
      <trkpt lat="51.380418352782726" lon="4.328999603167176">
        <ele>-19.940000000000001</ele>
        <time>2021-08-08T14:04:21Z</time>
      </trkpt>
      <trkpt lat="51.380370324477553" lon="4.328989963978529">
        <ele>-19.940000000000001</ele>
        <time>2021-08-08T14:04:22Z</time>
      </trkpt>
      <trkpt lat="51.380322715267539" lon="4.328990215435624">
        <ele>-19.920000000000002</ele>
        <time>2021-08-08T14:04:23Z</time>
      </trkpt>
      <trkpt lat="51.380270412191749" lon="4.3289914727211">
        <ele>-19.920000000000002</ele>
        <time>2021-08-08T14:04:24Z</time>
      </trkpt>
      <trkpt lat="51.380215007811785" lon="4.32898853905499">
        <ele>-19.949999999999999</ele>
        <time>2021-08-08T14:04:25Z</time>
      </trkpt>
      <trkpt lat="51.38004426844418" lon="4.328961633145809">
        <ele>-19.960000000000001</ele>
        <time>2021-08-08T14:04:28Z</time>
      </trkpt>
      <trkpt lat="51.379862548783422" lon="4.328941768035293">
        <ele>-21.399999999999999</ele>
        <time>2021-08-08T14:04:31Z</time>
      </trkpt>
      <trkpt lat="51.379285454750061" lon="4.328931709751487">
        <ele>-21.18</ele>
        <time>2021-08-08T14:04:41Z</time>
      </trkpt>
      <trkpt lat="51.378944562748075" lon="4.32889617048204">
        <ele>-21.109999999999999</ele>
        <time>2021-08-08T14:04:47Z</time>
      </trkpt>
      <trkpt lat="51.378894438967109" lon="4.328904300928116">
        <ele>-21.059999999999999</ele>
        <time>2021-08-08T14:04:48Z</time>
      </trkpt>
      <trkpt lat="51.378844482824206" lon="4.328925255686045">
        <ele>-21</ele>
        <time>2021-08-08T14:04:49Z</time>
      </trkpt>
      <trkpt lat="51.378796454519033" lon="4.328944785520434">
        <ele>-18.59</ele>
        <time>2021-08-08T14:04:50Z</time>
      </trkpt>
      <trkpt lat="51.378749599680305" lon="4.32894947938621">
        <ele>-18.59</ele>
        <time>2021-08-08T14:04:51Z</time>
      </trkpt>
      <trkpt lat="51.378703163936734" lon="4.328944534063339">
        <ele>-18.600000000000001</ele>
        <time>2021-08-08T14:04:52Z</time>
      </trkpt>
      <trkpt lat="51.378658236935735" lon="4.328939588740468">
        <ele>-18.609999999999999</ele>
        <time>2021-08-08T14:04:53Z</time>
      </trkpt>
      <trkpt lat="51.378350118175149" lon="4.328923411667347">
        <ele>-17.649999999999999</ele>
        <time>2021-08-08T14:05:00Z</time>
      </trkpt>
      <trkpt lat="51.378306029364467" lon="4.328921316191554">
        <ele>-17.629999999999999</ele>
        <time>2021-08-08T14:05:01Z</time>
      </trkpt>
      <trkpt lat="51.378261353820562" lon="4.328919555991888">
        <ele>-17.66</ele>
        <time>2021-08-08T14:05:02Z</time>
      </trkpt>
      <trkpt lat="51.378210727125406" lon="4.328917292878032">
        <ele>-17.649999999999999</ele>
        <time>2021-08-08T14:05:03Z</time>
      </trkpt>
      <trkpt lat="51.37815716676414" lon="4.328910252079368">
        <ele>-17.66</ele>
        <time>2021-08-08T14:05:04Z</time>
      </trkpt>
      <trkpt lat="51.378104528412223" lon="4.328901786357164">
        <ele>-17.690000000000001</ele>
        <time>2021-08-08T14:05:05Z</time>
      </trkpt>
      <trkpt lat="51.377878468483686" lon="4.328853003680706">
        <ele>-20.050000000000001</ele>
        <time>2021-08-08T14:05:09Z</time>
      </trkpt>
      <trkpt lat="51.377663053572178" lon="4.328820649534464">
        <ele>-20.039999999999999</ele>
        <time>2021-08-08T14:05:13Z</time>
      </trkpt>
      <trkpt lat="51.377608403563499" lon="4.328819308429956">
        <ele>-20.050000000000001</ele>
        <time>2021-08-08T14:05:14Z</time>
      </trkpt>
      <trkpt lat="51.377552915364504" lon="4.328821990638971">
        <ele>-20.02</ele>
        <time>2021-08-08T14:05:15Z</time>
      </trkpt>
      <trkpt lat="51.376878675073385" lon="4.328806903213263">
        <ele>-19.850000000000001</ele>
        <time>2021-08-08T14:05:27Z</time>
      </trkpt>
      <trkpt lat="51.376821342855692" lon="4.328810088336468">
        <ele>-19.879999999999999</ele>
        <time>2021-08-08T14:05:28Z</time>
      </trkpt>
      <trkpt lat="51.376763926818967" lon="4.328812686726451">
        <ele>-19.879999999999999</ele>
        <time>2021-08-08T14:05:29Z</time>
      </trkpt>
      <trkpt lat="51.376707097515464" lon="4.328814446926117">
        <ele>-19.870000000000001</ele>
        <time>2021-08-08T14:05:30Z</time>
      </trkpt>
      <trkpt lat="51.37654029764235" lon="4.3288170453161">
        <ele>-17.390000000000001</ele>
        <time>2021-08-08T14:05:33Z</time>
      </trkpt>
      <trkpt lat="51.376128830015659" lon="4.328845040872693">
        <ele>-17.390000000000001</ele>
        <time>2021-08-08T14:05:40Z</time>
      </trkpt>
      <trkpt lat="51.375959515571594" lon="4.328899439424276">
        <ele>-17.329999999999998</ele>
        <time>2021-08-08T14:05:43Z</time>
      </trkpt>
      <trkpt lat="51.375534888356924" lon="4.329108819365501">
        <ele>-17.329999999999998</ele>
        <time>2021-08-08T14:05:51Z</time>
      </trkpt>
      <trkpt lat="51.37525619007647" lon="4.32913413271308">
        <ele>-17.329999999999998</ele>
        <time>2021-08-08T14:05:56Z</time>
      </trkpt>
      <trkpt lat="51.375048318877816" lon="4.329113513231278">
        <ele>-17.199999999999999</ele>
        <time>2021-08-08T14:06:00Z</time>
      </trkpt>
      <trkpt lat="51.374990651383996" lon="4.329115189611912">
        <ele>-17.210000000000001</ele>
        <time>2021-08-08T14:06:01Z</time>
      </trkpt>
      <trkpt lat="51.374379610642791" lon="4.329078057780862">
        <ele>-17.050000000000001</ele>
        <time>2021-08-08T14:06:13Z</time>
      </trkpt>
      <trkpt lat="51.374148270115256" lon="4.329054420813918">
        <ele>-16.949999999999999</ele>
        <time>2021-08-08T14:06:23Z</time>
      </trkpt>
      <trkpt lat="51.374087668955326" lon="4.329049475491047">
        <ele>-16.949999999999999</ele>
        <time>2021-08-08T14:06:28Z</time>
      </trkpt>
      <trkpt lat="51.374075012281537" lon="4.329050648957491">
        <ele>-16.949999999999999</ele>
        <time>2021-08-08T14:06:29Z</time>
      </trkpt>
      <trkpt lat="51.373806456103921" lon="4.32902374304831">
        <ele>-16.890000000000001</ele>
        <time>2021-08-08T14:06:46Z</time>
      </trkpt>
      <trkpt lat="51.373710567131639" lon="4.328990047797561">
        <ele>-13.84</ele>
        <time>2021-08-08T14:06:51Z</time>
      </trkpt>
      <trkpt lat="51.373692378401756" lon="4.328986192122102">
        <ele>-13.84</ele>
        <time>2021-08-08T14:06:52Z</time>
      </trkpt>
      <trkpt lat="51.373675195500255" lon="4.328975798562169">
        <ele>-19.739999999999998</ele>
        <time>2021-08-08T14:06:53Z</time>
      </trkpt>
      <trkpt lat="51.373658431693912" lon="4.328964063897729">
        <ele>-15.35</ele>
        <time>2021-08-08T14:06:54Z</time>
      </trkpt>
      <trkpt lat="51.373380571603775" lon="4.32901100255549">
        <ele>-15.32</ele>
        <time>2021-08-08T14:07:09Z</time>
      </trkpt>
      <trkpt lat="51.373161217197776" lon="4.329026341438294">
        <ele>-15.289999999999999</ele>
        <time>2021-08-08T14:07:23Z</time>
      </trkpt>
      <trkpt lat="51.372977904975414" lon="4.328969931229949">
        <ele>-15.300000000000001</ele>
        <time>2021-08-08T14:07:35Z</time>
      </trkpt>
      <trkpt lat="51.372920656576753" lon="4.328899942338467">
        <ele>-15.26</ele>
        <time>2021-08-08T14:07:40Z</time>
      </trkpt>
      <trkpt lat="51.372912945225835" lon="4.32888301089406">
        <ele>-15.26</ele>
        <time>2021-08-08T14:07:41Z</time>
      </trkpt>
      <trkpt lat="51.37288729660213" lon="4.328816877678037">
        <ele>-15.23</ele>
        <time>2021-08-08T14:07:44Z</time>
      </trkpt>
      <trkpt lat="51.372882686555386" lon="4.328793659806252">
        <ele>-15.25</ele>
        <time>2021-08-08T14:07:45Z</time>
      </trkpt>
      <trkpt lat="51.372877070680261" lon="4.328773710876703">
        <ele>-15.25</ele>
        <time>2021-08-08T14:07:46Z</time>
      </trkpt>
      <trkpt lat="51.372873969376087" lon="4.328752588480711">
        <ele>-15.220000000000001</ele>
        <time>2021-08-08T14:07:47Z</time>
      </trkpt>
      <trkpt lat="51.372870784252882" lon="4.328727945685387">
        <ele>-15.220000000000001</ele>
        <time>2021-08-08T14:07:48Z</time>
      </trkpt>
      <trkpt lat="51.372832227498293" lon="4.328421838581562">
        <ele>-15.19</ele>
        <time>2021-08-08T14:08:01Z</time>
      </trkpt>
      <trkpt lat="51.372832478955388" lon="4.328373558819294">
        <ele>-15.199999999999999</ele>
        <time>2021-08-08T14:08:03Z</time>
      </trkpt>
      <trkpt lat="51.372829210013151" lon="4.328349502757192">
        <ele>-15.18</ele>
        <time>2021-08-08T14:08:04Z</time>
      </trkpt>
      <trkpt lat="51.372822923585773" lon="4.328325865790248">
        <ele>-15.18</ele>
        <time>2021-08-08T14:08:05Z</time>
      </trkpt>
      <trkpt lat="51.372817391529679" lon="4.328303318470717">
        <ele>-15.17</ele>
        <time>2021-08-08T14:08:06Z</time>
      </trkpt>
      <trkpt lat="51.372814793139696" lon="4.328279094770551">
        <ele>-15.15</ele>
        <time>2021-08-08T14:08:07Z</time>
      </trkpt>
      <trkpt lat="51.372809512540698" lon="4.328251434490085">
        <ele>-15.15</ele>
        <time>2021-08-08T14:08:08Z</time>
      </trkpt>
      <trkpt lat="51.37280716560781" lon="4.328227294608951">
        <ele>-15.15</ele>
        <time>2021-08-08T14:08:09Z</time>
      </trkpt>
      <trkpt lat="51.372801465913653" lon="4.328201562166214">
        <ele>-15.17</ele>
        <time>2021-08-08T14:08:10Z</time>
      </trkpt>
      <trkpt lat="51.372794257476926" lon="4.328178763389587">
        <ele>-15.19</ele>
        <time>2021-08-08T14:08:11Z</time>
      </trkpt>
      <trkpt lat="51.372784869745374" lon="4.328151689842343">
        <ele>-17.460000000000001</ele>
        <time>2021-08-08T14:08:12Z</time>
      </trkpt>
      <trkpt lat="51.372773637995124" lon="4.328128723427653">
        <ele>-17.43</ele>
        <time>2021-08-08T14:08:13Z</time>
      </trkpt>
      <trkpt lat="51.372762154787779" lon="4.328106511384249">
        <ele>-17.41</ele>
        <time>2021-08-08T14:08:14Z</time>
      </trkpt>
      <trkpt lat="51.372595019638538" lon="4.327925629913807">
        <ele>-17.449999999999999</ele>
        <time>2021-08-08T14:08:27Z</time>
      </trkpt>
      <trkpt lat="51.372359488159418" lon="4.327742233872414">
        <ele>-17.32</ele>
        <time>2021-08-08T14:08:43Z</time>
      </trkpt>
      <trkpt lat="51.372157568112016" lon="4.327586581930518">
        <ele>-17.309999999999999</ele>
        <time>2021-08-08T14:08:57Z</time>
      </trkpt>
      <trkpt lat="51.371944332495332" lon="4.327546348795295">
        <ele>-17.300000000000001</ele>
        <time>2021-08-08T14:09:10Z</time>
      </trkpt>
      <trkpt lat="51.371820280328393" lon="4.327597143128514">
        <ele>-16.170000000000002</ele>
        <time>2021-08-08T14:09:19Z</time>
      </trkpt>
      <trkpt lat="51.371579468250275" lon="4.327711556106806">
        <ele>-16.050000000000001</ele>
        <time>2021-08-08T14:09:34Z</time>
      </trkpt>
      <trkpt lat="51.37135298922658" lon="4.32779973372817">
        <ele>-15.91</ele>
        <time>2021-08-08T14:09:48Z</time>
      </trkpt>
      <trkpt lat="51.371177807450294" lon="4.32780266739428">
        <ele>-15.890000000000001</ele>
        <time>2021-08-08T14:09:59Z</time>
      </trkpt>
      <trkpt lat="51.37112776748836" lon="4.327806858345866">
        <ele>-18.25</ele>
        <time>2021-08-08T14:10:02Z</time>
      </trkpt>
      <trkpt lat="51.370962057262659" lon="4.327808199450374">
        <ele>-19.800000000000001</ele>
        <time>2021-08-08T14:10:12Z</time>
      </trkpt>
      <trkpt lat="51.370911598205566" lon="4.327811636030674">
        <ele>-17.52</ele>
        <time>2021-08-08T14:10:15Z</time>
      </trkpt>
      <trkpt lat="51.370864072814584" lon="4.327819515019655">
        <ele>-16.210000000000001</ele>
        <time>2021-08-08T14:10:18Z</time>
      </trkpt>
      <trkpt lat="51.370649915188551" lon="4.327852623537183">
        <ele>-15.09</ele>
        <time>2021-08-08T14:10:31Z</time>
      </trkpt>
      <trkpt lat="51.370632816106081" lon="4.327855473384261">
        <ele>-15.109999999999999</ele>
        <time>2021-08-08T14:10:32Z</time>
      </trkpt>
      <trkpt lat="51.370616471394897" lon="4.327855305746198">
        <ele>-15.109999999999999</ele>
        <time>2021-08-08T14:10:33Z</time>
      </trkpt>
      <trkpt lat="51.370602138340473" lon="4.327853629365563">
        <ele>-15.130000000000001</ele>
        <time>2021-08-08T14:10:34Z</time>
      </trkpt>
      <trkpt lat="51.370586715638638" lon="4.327853042632341">
        <ele>-15.1</ele>
        <time>2021-08-08T14:10:35Z</time>
      </trkpt>
      <trkpt lat="51.370568191632628" lon="4.327854467555881">
        <ele>-15.119999999999999</ele>
        <time>2021-08-08T14:10:36Z</time>
      </trkpt>
      <trkpt lat="51.370466435328126" lon="4.3278568983078">
        <ele>-15.1</ele>
        <time>2021-08-08T14:10:43Z</time>
      </trkpt>
      <trkpt lat="51.370449671521783" lon="4.327861173078418">
        <ele>-15.09</ele>
        <time>2021-08-08T14:10:44Z</time>
      </trkpt>
      <trkpt lat="51.370431901887059" lon="4.327865866944194">
        <ele>-15.09</ele>
        <time>2021-08-08T14:10:45Z</time>
      </trkpt>
      <trkpt lat="51.370416060090065" lon="4.327869890257716">
        <ele>-15.09</ele>
        <time>2021-08-08T14:10:46Z</time>
      </trkpt>
      <trkpt lat="51.370400385931134" lon="4.327872907742858">
        <ele>-15.07</ele>
        <time>2021-08-08T14:10:47Z</time>
      </trkpt>
      <trkpt lat="51.370382616296411" lon="4.32787005789578">
        <ele>-15.08</ele>
        <time>2021-08-08T14:10:48Z</time>
      </trkpt>
      <trkpt lat="51.370365098118782" lon="4.327867543324828">
        <ele>-15.06</ele>
        <time>2021-08-08T14:10:49Z</time>
      </trkpt>
      <trkpt lat="51.370345400646329" lon="4.32786569930613">
        <ele>-15.039999999999999</ele>
        <time>2021-08-08T14:10:50Z</time>
      </trkpt>
      <trkpt lat="51.370193185284734" lon="4.32786469347775">
        <ele>-14.960000000000001</ele>
        <time>2021-08-08T14:10:59Z</time>
      </trkpt>
      <trkpt lat="51.369986068457365" lon="4.327866788953543">
        <ele>-14.859999999999999</ele>
        <time>2021-08-08T14:11:13Z</time>
      </trkpt>
      <trkpt lat="51.369897555559874" lon="4.327861843630672">
        <ele>-14.800000000000001</ele>
        <time>2021-08-08T14:11:19Z</time>
      </trkpt>
      <trkpt lat="51.369645008817315" lon="4.327863352373242">
        <ele>-14.67</ele>
        <time>2021-08-08T14:11:35Z</time>
      </trkpt>
      <trkpt lat="51.369425989687443" lon="4.327930407598615">
        <ele>-14.539999999999999</ele>
        <time>2021-08-08T14:11:49Z</time>
      </trkpt>
      <trkpt lat="51.369353905320168" lon="4.328277418389916">
        <ele>-14.4</ele>
        <time>2021-08-08T14:12:05Z</time>
      </trkpt>
      <trkpt lat="51.369392797350883" lon="4.328690562397242">
        <ele>-13.5</ele>
        <time>2021-08-08T14:12:21Z</time>
      </trkpt>
      <trkpt lat="51.369413752108812" lon="4.329081159085035">
        <ele>-13.44</ele>
        <time>2021-08-08T14:12:37Z</time>
      </trkpt>
      <trkpt lat="51.36945323087275" lon="4.329601004719734">
        <ele>-13.31</ele>
        <time>2021-08-08T14:12:56Z</time>
      </trkpt>
      <trkpt lat="51.36948399245739" lon="4.329896299168468">
        <ele>-13.23</ele>
        <time>2021-08-08T14:13:11Z</time>
      </trkpt>
      <trkpt lat="51.369487680494785" lon="4.330277256667614">
        <ele>-13.16</ele>
        <time>2021-08-08T14:13:27Z</time>
      </trkpt>
      <trkpt lat="51.369518861174583" lon="4.33050524443388">
        <ele>-13.140000000000001</ele>
        <time>2021-08-08T14:13:38Z</time>
      </trkpt>
      <trkpt lat="51.369522800669074" lon="4.330565594136715">
        <ele>-13.140000000000001</ele>
        <time>2021-08-08T14:13:41Z</time>
      </trkpt>
      <trkpt lat="51.369529757648706" lon="4.330588141456246">
        <ele>-13.16</ele>
        <time>2021-08-08T14:13:42Z</time>
      </trkpt>
      <trkpt lat="51.369534116238356" lon="4.330615969374776">
        <ele>-13.15</ele>
        <time>2021-08-08T14:13:43Z</time>
      </trkpt>
      <trkpt lat="51.369535541161895" lon="4.330642623826861">
        <ele>-13.15</ele>
        <time>2021-08-08T14:13:44Z</time>
      </trkpt>
      <trkpt lat="51.3695352897048" lon="4.330666931346059">
        <ele>-13.16</ele>
        <time>2021-08-08T14:13:45Z</time>
      </trkpt>
      <trkpt lat="51.369535876438022" lon="4.330691741779447">
        <ele>-13.15</ele>
        <time>2021-08-08T14:13:46Z</time>
      </trkpt>
      <trkpt lat="51.369540737941861" lon="4.330790564417839">
        <ele>-13.16</ele>
        <time>2021-08-08T14:13:49Z</time>
      </trkpt>
      <trkpt lat="51.369538307189941" lon="4.330824846401811">
        <ele>-13.18</ele>
        <time>2021-08-08T14:13:50Z</time>
      </trkpt>
      <trkpt lat="51.369529673829675" lon="4.330895254388452">
        <ele>-13.19</ele>
        <time>2021-08-08T14:13:53Z</time>
      </trkpt>
      <trkpt lat="51.369528584182262" lon="4.330911347642541">
        <ele>-13.18</ele>
        <time>2021-08-08T14:13:54Z</time>
      </trkpt>
      <trkpt lat="51.369511652737856" lon="4.330971529707313">
        <ele>-13.17</ele>
        <time>2021-08-08T14:13:58Z</time>
      </trkpt>
      <trkpt lat="51.369502265006304" lon="4.330983683466911">
        <ele>-13.17</ele>
        <time>2021-08-08T14:13:59Z</time>
      </trkpt>
      <trkpt lat="51.36943026445806" lon="4.331097761169076">
        <ele>-13.17</ele>
        <time>2021-08-08T14:14:05Z</time>
      </trkpt>
      <trkpt lat="51.369354827329516" lon="4.331019558012486">
        <ele>-13.130000000000001</ele>
        <time>2021-08-08T14:14:20Z</time>
      </trkpt>
      <trkpt lat="51.369346361607313" lon="4.331010086461902">
        <ele>-13.130000000000001</ele>
        <time>2021-08-08T14:14:21Z</time>
      </trkpt>
      <trkpt lat="51.369336806237698" lon="4.331000028178096">
        <ele>-13.109999999999999</ele>
        <time>2021-08-08T14:14:22Z</time>
      </trkpt>
      <trkpt lat="51.369322808459401" lon="4.330985611304641">
        <ele>-13.109999999999999</ele>
        <time>2021-08-08T14:14:23Z</time>
      </trkpt>
      <trkpt lat="51.369301686063409" lon="4.330962561070919">
        <ele>-13.109999999999999</ele>
        <time>2021-08-08T14:14:24Z</time>
      </trkpt>
      <trkpt lat="51.369232283905149" lon="4.330942109227181">
        <ele>-13.07</ele>
        <time>2021-08-08T14:14:37Z</time>
      </trkpt>
      <trkpt lat="51.369198001921177" lon="4.330939091742039">
        <ele>-13.029999999999999</ele>
        <time>2021-08-08T14:14:55Z</time>
      </trkpt>
      <trkpt lat="51.369264470413327" lon="4.330947557464242">
        <ele>-4.57</ele>
        <time>2021-08-08T14:39:49Z</time>
      </trkpt>
      <trkpt lat="51.369324568659067" lon="4.331006985157728">
        <ele>-4.55</ele>
        <time>2021-08-08T14:39:54Z</time>
      </trkpt>
      <trkpt lat="51.369324987754226" lon="4.331169091165066">
        <ele>-4.5</ele>
        <time>2021-08-08T14:40:07Z</time>
      </trkpt>
      <trkpt lat="51.369139580056071" lon="4.331081751734018">
        <ele>-4.49</ele>
        <time>2021-08-08T14:40:24Z</time>
      </trkpt>
      <trkpt lat="51.368920225650072" lon="4.330955017358065">
        <ele>-4.48</ele>
        <time>2021-08-08T14:40:40Z</time>
      </trkpt>
      <trkpt lat="51.36883120983839" lon="4.330971362069249">
        <ele>-4.59</ele>
        <time>2021-08-08T14:40:53Z</time>
      </trkpt>
      <trkpt lat="51.368850991129875" lon="4.331104885786772">
        <ele>-4.61</ele>
        <time>2021-08-08T14:41:15Z</time>
      </trkpt>
      <trkpt lat="51.36887320317328" lon="4.331256849691272">
        <ele>-4.74</ele>
        <time>2021-08-08T14:41:24Z</time>
      </trkpt>
      <trkpt lat="51.368860462680459" lon="4.33132465928793">
        <ele>-4.76</ele>
        <time>2021-08-08T14:41:27Z</time>
      </trkpt>
      <trkpt lat="51.368775805458426" lon="4.331704275682569">
        <ele>-4.96</ele>
        <time>2021-08-08T14:41:47Z</time>
      </trkpt>
      <trkpt lat="51.368707828223705" lon="4.332198053598404">
        <ele>-5.27</ele>
        <time>2021-08-08T14:42:09Z</time>
      </trkpt>
      <trkpt lat="51.368680167943239" lon="4.332543052732945">
        <ele>-5.59</ele>
        <time>2021-08-08T14:42:26Z</time>
      </trkpt>
      <trkpt lat="51.368706151843071" lon="4.332976900041103">
        <ele>-5.98</ele>
        <time>2021-08-08T14:42:44Z</time>
      </trkpt>
      <trkpt lat="51.368710175156593" lon="4.335172455757856">
        <ele>-7.57</ele>
        <time>2021-08-08T14:44:33Z</time>
      </trkpt>
      <trkpt lat="51.368694584816694" lon="4.335727589204907">
        <ele>-8.51</ele>
        <time>2021-08-08T14:44:54Z</time>
      </trkpt>
      <trkpt lat="51.36867237277329" lon="4.33612204156816">
        <ele>-9.449999999999999</ele>
        <time>2021-08-08T14:45:15Z</time>
      </trkpt>
      <trkpt lat="51.36843441054225" lon="4.337577391415834">
        <ele>-10.640000000000001</ele>
        <time>2021-08-08T14:45:56Z</time>
      </trkpt>
      <trkpt lat="51.368432734161615" lon="4.337578816339374">
        <ele>-10.69</ele>
        <time>2021-08-08T14:45:57Z</time>
      </trkpt>
      <trkpt lat="51.368369618430734" lon="4.33762114495039">
        <ele>-10.99</ele>
        <time>2021-08-08T14:46:06Z</time>
      </trkpt>
      <trkpt lat="51.368263084441423" lon="4.337652828544378">
        <ele>-11.18</ele>
        <time>2021-08-08T14:46:13Z</time>
      </trkpt>
      <trkpt lat="51.368081280961633" lon="4.337719129398465">
        <ele>-11.59</ele>
        <time>2021-08-08T14:46:28Z</time>
      </trkpt>
      <trkpt lat="51.368066612631083" lon="4.337738826870918">
        <ele>-11.6</ele>
        <time>2021-08-08T14:46:30Z</time>
      </trkpt>
      <trkpt lat="51.367807192727923" lon="4.337893472984433">
        <ele>-11.880000000000001</ele>
        <time>2021-08-08T14:46:41Z</time>
      </trkpt>
      <trkpt lat="51.367761846631765" lon="4.337909482419491">
        <ele>-11.93</ele>
        <time>2021-08-08T14:46:43Z</time>
      </trkpt>
      <trkpt lat="51.367747010663152" lon="4.337910069152713">
        <ele>-11.949999999999999</ele>
        <time>2021-08-08T14:46:44Z</time>
      </trkpt>
      <trkpt lat="51.367421373724937" lon="4.337994810193777">
        <ele>-12.25</ele>
        <time>2021-08-08T14:46:56Z</time>
      </trkpt>
      <trkpt lat="51.367221213877201" lon="4.338020123541355">
        <ele>-12.529999999999999</ele>
        <time>2021-08-08T14:47:05Z</time>
      </trkpt>
      <trkpt lat="51.366907814517617" lon="4.338060021400452">
        <ele>-12.880000000000001</ele>
        <time>2021-08-08T14:47:15Z</time>
      </trkpt>
      <trkpt lat="51.365917325019836" lon="4.33826906606555">
        <ele>-14.35</ele>
        <time>2021-08-08T14:47:49Z</time>
      </trkpt>
      <trkpt lat="51.365496972575784" lon="4.338301420211792">
        <ele>-14.960000000000001</ele>
        <time>2021-08-08T14:48:02Z</time>
      </trkpt>
      <trkpt lat="51.3652906101197" lon="4.338302090764046">
        <ele>-15.17</ele>
        <time>2021-08-08T14:48:08Z</time>
      </trkpt>
      <trkpt lat="51.364170368760824" lon="4.338557990267873">
        <ele>-16.239999999999998</ele>
        <time>2021-08-08T14:48:30Z</time>
      </trkpt>
      <trkpt lat="51.364126950502396" lon="4.338598139584065">
        <ele>-16.289999999999999</ele>
        <time>2021-08-08T14:48:31Z</time>
      </trkpt>
      <trkpt lat="51.364078922197223" lon="4.338604593649507">
        <ele>-16.34</ele>
        <time>2021-08-08T14:48:32Z</time>
      </trkpt>
      <trkpt lat="51.364029636606574" lon="4.33863066136837">
        <ele>-16.41</ele>
        <time>2021-08-08T14:48:33Z</time>
      </trkpt>
      <trkpt lat="51.363989571109414" lon="4.338650861755014">
        <ele>-16.449999999999999</ele>
        <time>2021-08-08T14:48:34Z</time>
      </trkpt>
      <trkpt lat="51.363924946635962" lon="4.338679779320955">
        <ele>-16.469999999999999</ele>
        <time>2021-08-08T14:48:35Z</time>
      </trkpt>
      <trkpt lat="51.363792428746819" lon="4.338777679949999">
        <ele>-16.609999999999999</ele>
        <time>2021-08-08T14:48:38Z</time>
      </trkpt>
      <trkpt lat="51.363560920581222" lon="4.338869294151664">
        <ele>-16.77</ele>
        <time>2021-08-08T14:48:42Z</time>
      </trkpt>
      <trkpt lat="51.363342572003603" lon="4.33886812068522">
        <ele>-16.91</ele>
        <time>2021-08-08T14:48:45Z</time>
      </trkpt>
      <trkpt lat="51.363276774063706" lon="4.338885052129626">
        <ele>-16.960000000000001</ele>
        <time>2021-08-08T14:48:46Z</time>
      </trkpt>
      <trkpt lat="51.363210389390588" lon="4.338894858956337">
        <ele>-16.98</ele>
        <time>2021-08-08T14:48:47Z</time>
      </trkpt>
      <trkpt lat="51.362681156024337" lon="4.339072806760669">
        <ele>-17.43</ele>
        <time>2021-08-08T14:48:56Z</time>
      </trkpt>
      <trkpt lat="51.362632708624005" lon="4.33911488391459">
        <ele>-17.48</ele>
        <time>2021-08-08T14:48:57Z</time>
      </trkpt>
      <trkpt lat="51.362510584294796" lon="4.339209767058492">
        <ele>-17.57</ele>
        <time>2021-08-08T14:48:59Z</time>
      </trkpt>
      <trkpt lat="51.362447803840041" lon="4.339251676574349">
        <ele>-17.620000000000001</ele>
        <time>2021-08-08T14:49:00Z</time>
      </trkpt>
      <trkpt lat="51.362386615946889" lon="4.339297106489539">
        <ele>-17.66</ele>
        <time>2021-08-08T14:49:01Z</time>
      </trkpt>
      <trkpt lat="51.362321237102151" lon="4.339313954114914">
        <ele>-17.699999999999999</ele>
        <time>2021-08-08T14:49:02Z</time>
      </trkpt>
      <trkpt lat="51.362264240160584" lon="4.339337255805731">
        <ele>-17.73</ele>
        <time>2021-08-08T14:49:03Z</time>
      </trkpt>
      <trkpt lat="51.362210595980287" lon="4.339354941621423">
        <ele>-17.789999999999999</ele>
        <time>2021-08-08T14:49:04Z</time>
      </trkpt>
      <trkpt lat="51.362172961235046" lon="4.339370867237449">
        <ele>-17.82</ele>
        <time>2021-08-08T14:49:05Z</time>
      </trkpt>
      <trkpt lat="51.361690331250429" lon="4.339538337662816">
        <ele>-18.18</ele>
        <time>2021-08-08T14:49:17Z</time>
      </trkpt>
      <trkpt lat="51.361079961061478" lon="4.339805636554956">
        <ele>-18.59</ele>
        <time>2021-08-08T14:49:28Z</time>
      </trkpt>
      <trkpt lat="51.360695818439126" lon="4.340016189962626">
        <ele>-18.829999999999998</ele>
        <time>2021-08-08T14:49:36Z</time>
      </trkpt>
      <trkpt lat="51.360419718548656" lon="4.340044353157282">
        <ele>-19</ele>
        <time>2021-08-08T14:49:40Z</time>
      </trkpt>
      <trkpt lat="51.360329361632466" lon="4.340085508301854">
        <ele>-19.050000000000001</ele>
        <time>2021-08-08T14:49:42Z</time>
      </trkpt>
      <trkpt lat="51.360146719962358" lon="4.340137057006359">
        <ele>-19.16</ele>
        <time>2021-08-08T14:49:45Z</time>
      </trkpt>
      <trkpt lat="51.360066337510943" lon="4.340139823034406">
        <ele>-19.18</ele>
        <time>2021-08-08T14:49:46Z</time>
      </trkpt>
      <trkpt lat="51.360003892332315" lon="4.340151892974973">
        <ele>-19.199999999999999</ele>
        <time>2021-08-08T14:49:47Z</time>
      </trkpt>
      <trkpt lat="51.359865171834826" lon="4.340198915451765">
        <ele>-21.800000000000001</ele>
        <time>2021-08-08T14:49:49Z</time>
      </trkpt>
      <trkpt lat="51.359347840771079" lon="4.340369738638401">
        <ele>-22.09</ele>
        <time>2021-08-08T14:50:00Z</time>
      </trkpt>
      <trkpt lat="51.35885389521718" lon="4.340559002012014">
        <ele>-22.280000000000001</ele>
        <time>2021-08-08T14:50:12Z</time>
      </trkpt>
      <trkpt lat="51.358521301299334" lon="4.340645838528872">
        <ele>-22.449999999999999</ele>
        <time>2021-08-08T14:50:22Z</time>
      </trkpt>
      <trkpt lat="51.358133973553777" lon="4.34083878993988">
        <ele>-22.670000000000002</ele>
        <time>2021-08-08T14:50:39Z</time>
      </trkpt>
      <trkpt lat="51.358025260269642" lon="4.34124288149178">
        <ele>-22.91</ele>
        <time>2021-08-08T14:50:59Z</time>
      </trkpt>
      <trkpt lat="51.357983686029911" lon="4.341626269742847">
        <ele>-23.030000000000001</ele>
        <time>2021-08-08T14:51:18Z</time>
      </trkpt>
      <trkpt lat="51.357911434024572" lon="4.342207554727793">
        <ele>-23.199999999999999</ele>
        <time>2021-08-08T14:51:39Z</time>
      </trkpt>
      <trkpt lat="51.357922330498695" lon="4.342556577175856">
        <ele>-23.359999999999999</ele>
        <time>2021-08-08T14:52:02Z</time>
      </trkpt>
      <trkpt lat="51.357937166467309" lon="4.342736368998885">
        <ele>-23.57</ele>
        <time>2021-08-08T14:52:20Z</time>
      </trkpt>
      <trkpt lat="51.357939513400197" lon="4.34278154745698">
        <ele>-21.280000000000001</ele>
        <time>2021-08-08T14:52:23Z</time>
      </trkpt>
      <trkpt lat="51.357952421531081" lon="4.342852290719748">
        <ele>-20.440000000000001</ele>
        <time>2021-08-08T14:52:28Z</time>
      </trkpt>
      <trkpt lat="51.35796993970871" lon="4.343115398660302">
        <ele>-20.57</ele>
        <time>2021-08-08T14:52:38Z</time>
      </trkpt>
      <trkpt lat="51.357995588332415" lon="4.343241211026907">
        <ele>-20.66</ele>
        <time>2021-08-08T14:52:43Z</time>
      </trkpt>
      <trkpt lat="51.358199520036578" lon="4.345062347128987">
        <ele>-22.210000000000001</ele>
        <time>2021-08-08T14:54:05Z</time>
      </trkpt>
      <trkpt lat="51.358246542513371" lon="4.346210835501552">
        <ele>-22.850000000000001</ele>
        <time>2021-08-08T14:54:44Z</time>
      </trkpt>
      <trkpt lat="51.358100781217217" lon="4.346230532974005">
        <ele>-23.109999999999999</ele>
        <time>2021-08-08T14:55:03Z</time>
      </trkpt>
      <trkpt lat="51.358052669093013" lon="4.346215194091201">
        <ele>-25.440000000000001</ele>
        <time>2021-08-08T14:55:08Z</time>
      </trkpt>
      <trkpt lat="51.357745723798871" lon="4.346301443874836">
        <ele>-25.59</ele>
        <time>2021-08-08T14:55:30Z</time>
      </trkpt>
      <trkpt lat="51.357625108212233" lon="4.346287027001381">
        <ele>-25.629999999999999</ele>
        <time>2021-08-08T14:55:37Z</time>
      </trkpt>
      <trkpt lat="51.357303410768509" lon="4.346266156062484">
        <ele>-25.73</ele>
        <time>2021-08-08T14:55:57Z</time>
      </trkpt>
      <trkpt lat="51.356999315321445" lon="4.346266323700547">
        <ele>-25.789999999999999</ele>
        <time>2021-08-08T14:56:17Z</time>
      </trkpt>
      <trkpt lat="51.356649789959192" lon="4.346252661198378">
        <ele>-25.82</ele>
        <time>2021-08-08T14:56:40Z</time>
      </trkpt>
      <trkpt lat="51.356364469975233" lon="4.346191557124257">
        <ele>-26.649999999999999</ele>
        <time>2021-08-08T14:56:59Z</time>
      </trkpt>
      <trkpt lat="51.356008071452379" lon="4.346247548237443">
        <ele>-26.620000000000001</ele>
        <time>2021-08-08T14:57:20Z</time>
      </trkpt>
      <trkpt lat="51.35579651221633" lon="4.346186192706227">
        <ele>-26.68</ele>
        <time>2021-08-08T14:57:37Z</time>
      </trkpt>
      <trkpt lat="51.355733815580606" lon="4.345850748941302">
        <ele>-27.59</ele>
        <time>2021-08-08T14:58:00Z</time>
      </trkpt>
      <trkpt lat="51.355631807819009" lon="4.345096293836832">
        <ele>-27.829999999999998</ele>
        <time>2021-08-08T14:58:33Z</time>
      </trkpt>
      <trkpt lat="51.355604650452733" lon="4.344757916405797">
        <ele>-28.079999999999998</ele>
        <time>2021-08-08T14:58:48Z</time>
      </trkpt>
      <trkpt lat="51.355602471157908" lon="4.344410905614495">
        <ele>-28.370000000000001</ele>
        <time>2021-08-08T14:59:04Z</time>
      </trkpt>
      <trkpt lat="51.355591993778944" lon="4.344251984730363">
        <ele>-28.52</ele>
        <time>2021-08-08T14:59:13Z</time>
      </trkpt>
      <trkpt lat="51.355442376807332" lon="4.344410905614495">
        <ele>-28.809999999999999</ele>
        <time>2021-08-08T14:59:30Z</time>
      </trkpt>
      <trkpt lat="51.355247665196657" lon="4.344527581706643">
        <ele>-29</ele>
        <time>2021-08-08T14:59:45Z</time>
      </trkpt>
      <trkpt lat="51.355099054053426" lon="4.344630092382431">
        <ele>-29.100000000000001</ele>
        <time>2021-08-08T14:59:56Z</time>
      </trkpt>
      <trkpt lat="51.355020515620708" lon="4.344681641086936">
        <ele>-29.129999999999999</ele>
        <time>2021-08-08T15:00:02Z</time>
      </trkpt>
      <trkpt lat="51.354809459298849" lon="4.344827653840184">
        <ele>-29.210000000000001</ele>
        <time>2021-08-08T15:00:15Z</time>
      </trkpt>
      <trkpt lat="51.354580381885171" lon="4.345028735697269">
        <ele>-29.280000000000001</ele>
        <time>2021-08-08T15:00:32Z</time>
      </trkpt>
      <trkpt lat="51.354528833180666" lon="4.34506150893867">
        <ele>-29.300000000000001</ele>
        <time>2021-08-08T15:00:36Z</time>
      </trkpt>
      <trkpt lat="51.354443589225411" lon="4.345130072906613">
        <ele>-29.329999999999998</ele>
        <time>2021-08-08T15:00:43Z</time>
      </trkpt>
      <trkpt lat="51.354267653077841" lon="4.345243982970715">
        <ele>-29.390000000000001</ele>
        <time>2021-08-08T15:00:57Z</time>
      </trkpt>
      <trkpt lat="51.354082580655813" lon="4.34526233933866">
        <ele>-29.43</ele>
        <time>2021-08-08T15:01:11Z</time>
      </trkpt>
      <trkpt lat="51.353827770799398" lon="4.345245072618127">
        <ele>-29.48</ele>
        <time>2021-08-08T15:01:27Z</time>
      </trkpt>
      <trkpt lat="51.353800194337964" lon="4.345257058739662">
        <ele>-29.469999999999999</ele>
        <time>2021-08-08T15:01:29Z</time>
      </trkpt>
      <trkpt lat="51.353599531576037" lon="4.34536200016737">
        <ele>-30.27</ele>
        <time>2021-08-08T15:01:42Z</time>
      </trkpt>
      <trkpt lat="51.353400461375713" lon="4.345432994887233">
        <ele>-30.219999999999999</ele>
        <time>2021-08-08T15:01:57Z</time>
      </trkpt>
      <trkpt lat="51.351785939186811" lon="4.346374366432428">
        <ele>-57.479999999999997</ele>
        <time>2021-08-08T15:02:09Z</time>
      </trkpt>
    </trkseg>
  </trk>

</gpx>